Darstellungsparameter: Aktuell verwendete Einstellungen:
Skalierung der Graphiken ... ?
xyx+y,   Skalierungsfaktor:      Skalierung: Modus: x, Faktor: 1
Darstellungszeitraum ... ?
Vom - - bis: - -   Zeitraum: 15.06.2015 - 21.06.2015
Min/Max/Avg-Anzeige ... ?
Zeige MMA aktuell
Zeige MMA Monat
Zeige MMA alles
Zeige --A aktuell
Zeige --A Monat
Zeige --A alles
Keine MMA-Anzeige
MMA:
Keine MMA-Graphiken
MMA-Basis: 15.06.2015 - 21.06.2015
Quicknavigation für Darstellung... ?
Tage:      1T, 2T, 3T, 5T -1T -2T -3T -5T +1T +2T +3T +5T
Wochen: 1W, 2W, 3W -1W -2W -3W +1W +2W +3W
Monate: 1M, 3M, 6M -1M -3M -6M +1M +3M +6M
Jahre:    1J, 3J, 5J, 10J -1J -3J -5J -10J +1J +3J +5J +10J
Nutze für die Darstellung ... ?
Originaldaten oder Mittelwerte auf ...
Stundenbasis Tagesbasis Wochenbasis
Monatsbasis Jahresbasis      Datenbasis: Original-Daten
Darstellen als:
Statistik (Auto) Statistik J:M      Darstellung:
Zur Graphik,    zurück zur Übersicht aller Sensoren.
 
Tabellarische Datenbersicht: ?
 
Sensor: Nr:Datum:Temp:Feuchte:Taupunkt:
Aussen-T/F 1 15-06-2015 00:00:00 16.4 C 81 % 13.13 C
2 15-06-2015 00:05:00 16.3 C 81 % 13.04 C
3 15-06-2015 00:10:00 16.3 C 81 % 13.04 C
4 15-06-2015 00:15:00 16.2 C 81 % 12.94 C
5 15-06-2015 00:20:00 16.1 C 82 % 13.03 C
6 15-06-2015 00:25:00 16.1 C 82 % 13.03 C
7 15-06-2015 00:30:00 16 C 83 % 13.12 C
8 15-06-2015 00:35:00 15.9 C 82 % 12.83 C
9 15-06-2015 00:40:00 15.8 C 83 % 12.92 C
10 15-06-2015 00:45:00 15.8 C 83 % 12.92 C
11 15-06-2015 00:50:00 15.8 C 84 % 13.1 C
12 15-06-2015 00:55:00 15.7 C 83 % 12.82 C
13 15-06-2015 01:00:00 15.7 C 84 % 13.01 C
14 15-06-2015 01:05:00 15.7 C 84 % 13.01 C
15 15-06-2015 01:10:00 15.6 C 84 % 12.91 C
16 15-06-2015 01:15:00 15.5 C 85 % 12.99 C
17 15-06-2015 01:20:00 15.4 C 84 % 12.71 C
18 15-06-2015 01:25:00 15.4 C 84 % 12.71 C
19 15-06-2015 01:30:00 15.4 C 84 % 12.71 C
20 15-06-2015 01:35:00 15.3 C 84 % 12.61 C
21 15-06-2015 01:40:00 15.3 C 84 % 12.61 C
22 15-06-2015 01:45:00 15.2 C 85 % 12.7 C
23 15-06-2015 01:50:00 15.1 C 85 % 12.6 C
24 15-06-2015 01:55:00 15.1 C 86 % 12.78 C
25 15-06-2015 02:00:00 14.9 C 86 % 12.58 C
Sensor: Nr:Datum:Temp:Feuchte:Taupunkt:
Aussen-T/F 26 15-06-2015 02:05:00 14.9 C 86 % 12.58 C
27 15-06-2015 02:10:00 14.8 C 87 % 12.66 C
28 15-06-2015 02:15:00 14.7 C 87 % 12.56 C
29 15-06-2015 02:20:00 14.7 C 87 % 12.56 C
30 15-06-2015 02:25:00 14.7 C 87 % 12.56 C
31 15-06-2015 02:30:00 14.7 C 88 % 12.73 C
32 15-06-2015 02:35:00 14.7 C 88 % 12.73 C
33 15-06-2015 02:40:00 14.7 C 88 % 12.73 C
34 15-06-2015 02:45:00 14.7 C 88 % 12.73 C
35 15-06-2015 02:50:00 14.7 C 88 % 12.73 C
36 15-06-2015 02:55:00 14.7 C 88 % 12.73 C
37 15-06-2015 03:00:00 14.6 C 88 % 12.64 C
38 15-06-2015 03:05:00 14.6 C 88 % 12.64 C
39 15-06-2015 03:10:00 14.6 C 89 % 12.81 C
40 15-06-2015 03:15:00 14.6 C 89 % 12.81 C
41 15-06-2015 03:20:00 14.7 C 89 % 12.91 C
42 15-06-2015 03:25:00 14.8 C 88 % 12.83 C
43 15-06-2015 03:30:00 14.8 C 88 % 12.83 C
44 15-06-2015 03:35:00 14.9 C 88 % 12.93 C
45 15-06-2015 03:40:00 14.9 C 88 % 12.93 C
46 15-06-2015 03:45:00 14.9 C 88 % 12.93 C
47 15-06-2015 03:50:00 14.9 C 88 % 12.93 C
48 15-06-2015 03:55:00 14.9 C 88 % 12.93 C
49 15-06-2015 04:00:00 14.9 C 89 % 13.1 C
50 15-06-2015 04:05:00 14.8 C 88 % 12.83 C
Sensor: Nr:Datum:Temp:Feuchte:Taupunkt:
Aussen-T/F 51 15-06-2015 04:10:00 14.7 C 89 % 12.91 C
52 15-06-2015 04:15:00 14.6 C 89 % 12.81 C
53 15-06-2015 04:20:00 14.6 C 89 % 12.81 C
54 15-06-2015 04:25:00 14.4 C 89 % 12.61 C
55 15-06-2015 04:30:00 14.3 C 90 % 12.68 C
56 15-06-2015 04:35:00 14.2 C 90 % 12.58 C
57 15-06-2015 04:40:00 14.2 C 90 % 12.58 C
58 15-06-2015 04:45:00 14.2 C 90 % 12.58 C
59 15-06-2015 04:50:00 14.1 C 90 % 12.49 C
60 15-06-2015 04:55:00 14.1 C 91 % 12.65 C
61 15-06-2015 05:00:00 14.1 C 91 % 12.65 C
62 15-06-2015 05:05:00 14.1 C 91 % 12.65 C
63 15-06-2015 05:10:00 14 C 91 % 12.56 C
64 15-06-2015 05:15:00 13.9 C 91 % 12.46 C
65 15-06-2015 05:20:00 13.9 C 91 % 12.46 C
66 15-06-2015 05:25:00 13.8 C 91 % 12.36 C
67 15-06-2015 05:30:00 13.7 C 91 % 12.26 C
68 15-06-2015 05:35:00 13.6 C 91 % 12.16 C
69 15-06-2015 05:40:00 13.6 C 92 % 12.33 C
70 15-06-2015 05:45:00 13.6 C 92 % 12.33 C
71 15-06-2015 05:50:00 13.6 C 92 % 12.33 C
72 15-06-2015 05:55:00 13.6 C 92 % 12.33 C
73 15-06-2015 06:00:00 13.6 C 93 % 12.49 C
74 15-06-2015 06:05:00 13.6 C 93 % 12.49 C
75 15-06-2015 06:10:00 13.7 C 93 % 12.59 C
Sensor: Nr:Datum:Temp:Feuchte:Taupunkt:
Aussen-T/F 76 15-06-2015 06:15:00 13.7 C 93 % 12.59 C
77 15-06-2015 06:20:00 13.7 C 93 % 12.59 C
78 15-06-2015 06:25:00 13.7 C 93 % 12.59 C
79 15-06-2015 06:30:00 13.7 C 93 % 12.59 C
80 15-06-2015 06:35:00 13.8 C 93 % 12.69 C
81 15-06-2015 06:40:00 13.8 C 93 % 12.69 C
82 15-06-2015 06:45:00 13.9 C 93 % 12.79 C
83 15-06-2015 06:50:00 13.9 C 93 % 12.79 C
84 15-06-2015 06:55:00 14 C 93 % 12.89 C
85 15-06-2015 07:00:00 14.1 C 93 % 12.99 C
86 15-06-2015 07:05:00 14.1 C 92 % 12.82 C
87 15-06-2015 07:10:00 14.2 C 93 % 13.08 C
88 15-06-2015 07:15:00 14.3 C 93 % 13.18 C
89 15-06-2015 07:20:00 14.4 C 92 % 13.12 C
90 15-06-2015 07:25:00 14.6 C 92 % 13.32 C
91 15-06-2015 07:30:00 14.7 C 92 % 13.41 C
92 15-06-2015 07:35:00 14.9 C 92 % 13.61 C
93 15-06-2015 07:40:00 15 C 91 % 13.54 C
94 15-06-2015 07:45:00 15.2 C 91 % 13.74 C
95 15-06-2015 07:50:00 15.3 C 90 % 13.67 C
96 15-06-2015 07:55:00 15.6 C 91 % 14.14 C
97 15-06-2015 08:00:00 15.7 C 90 % 14.06 C
98 15-06-2015 08:05:00 15.9 C 88 % 13.92 C
99 15-06-2015 08:10:00 16.1 C 87 % 13.94 C
100 15-06-2015 08:15:00 16.2 C 86 % 13.86 C
Sensor: Nr:Datum:Temp:Feuchte:Taupunkt:
Aussen-T/F 101 15-06-2015 08:20:00 16.3 C 86 % 13.95 C
102 15-06-2015 08:25:00 16.4 C 85 % 13.87 C
103 15-06-2015 08:30:00 16.5 C 85 % 13.97 C
104 15-06-2015 08:35:00 16.7 C 84 % 13.98 C
105 15-06-2015 08:40:00 16.8 C 81 % 13.52 C
106 15-06-2015 08:45:00 16.8 C 81 % 13.52 C
107 15-06-2015 08:50:00 16.9 C 81 % 13.62 C
108 15-06-2015 08:55:00 17.1 C 80 % 13.62 C
109 15-06-2015 09:00:00 17.3 C 80 % 13.82 C
110 15-06-2015 09:05:00 17.4 C 79 % 13.72 C
111 15-06-2015 09:10:00 17.6 C 78 % 13.72 C
112 15-06-2015 09:15:00 17.9 C 79 % 14.21 C
113 15-06-2015 09:20:00 18 C 77 % 13.91 C
114 15-06-2015 09:25:00 18.2 C 75 % 13.7 C
115 15-06-2015 09:30:00 18.2 C 74 % 13.49 C
116 15-06-2015 09:35:00 18.3 C 74 % 13.59 C
117 15-06-2015 09:40:00 18.3 C 73 % 13.38 C
118 15-06-2015 09:45:00 18.5 C 73 % 13.57 C
119 15-06-2015 09:50:00 18.7 C 72 % 13.55 C
120 15-06-2015 09:55:00 18.8 C 72 % 13.65 C
121 15-06-2015 10:00:00 18.9 C 72 % 13.74 C
122 15-06-2015 10:05:00 18.9 C 71 % 13.53 C
123 15-06-2015 10:10:00 18.9 C 72 % 13.74 C
124 15-06-2015 10:15:00 19 C 70 % 13.41 C
125 15-06-2015 10:20:00 18.9 C 72 % 13.74 C
Sensor: Nr:Datum:Temp:Feuchte:Taupunkt:
Aussen-T/F 126 15-06-2015 10:25:00 19.1 C 70 % 13.5 C
127 15-06-2015 10:30:00 19 C 71 % 13.63 C
128 15-06-2015 10:35:00 18.9 C 72 % 13.74 C
129 15-06-2015 10:40:00 18.8 C 73 % 13.86 C
130 15-06-2015 10:45:00 18.7 C 74 % 13.97 C
131 15-06-2015 10:50:00 18.4 C 74 % 13.68 C
132 15-06-2015 10:55:00 18.3 C 76 % 14 C
133 15-06-2015 11:00:00 18.2 C 76 % 13.9 C
134 15-06-2015 11:05:00 18.1 C 76 % 13.81 C
135 15-06-2015 11:10:00 18 C 76 % 13.71 C
136 15-06-2015 11:15:00 17.8 C 77 % 13.72 C
137 15-06-2015 11:20:00 17.8 C 77 % 13.72 C
138 15-06-2015 11:25:00 17.8 C 78 % 13.91 C
139 15-06-2015 11:30:00 17.9 C 78 % 14.01 C
140 15-06-2015 11:35:00 18.1 C 77 % 14.01 C
141 15-06-2015 11:40:00 18.3 C 75 % 13.79 C
142 15-06-2015 11:45:00 18.3 C 77 % 14.2 C
143 15-06-2015 11:50:00 18.3 C 74 % 13.59 C
144 15-06-2015 11:55:00 18.3 C 75 % 13.79 C
145 15-06-2015 12:00:00 18.2 C 75 % 13.7 C
146 15-06-2015 12:05:00 18.2 C 75 % 13.7 C
147 15-06-2015 12:10:00 18.2 C 75 % 13.7 C
148 15-06-2015 12:15:00 18.3 C 75 % 13.79 C
149 15-06-2015 12:20:00 18.3 C 75 % 13.79 C
150 15-06-2015 12:25:00 18.3 C 75 % 13.79 C
Sensor: Nr:Datum:Temp:Feuchte:Taupunkt:
Aussen-T/F 151 15-06-2015 12:30:00 18.3 C 74 % 13.59 C
152 15-06-2015 12:35:00 18.4 C 74 % 13.68 C
153 15-06-2015 12:40:00 18.5 C 74 % 13.78 C
154 15-06-2015 12:45:00 18.5 C 74 % 13.78 C
155 15-06-2015 12:50:00 18.7 C 75 % 14.18 C
156 15-06-2015 12:55:00 18.8 C 73 % 13.86 C
157 15-06-2015 13:00:00 18.9 C 74 % 14.17 C
158 15-06-2015 13:05:00 19.1 C 72 % 13.94 C
159 15-06-2015 13:10:00 19.3 C 71 % 13.91 C
160 15-06-2015 13:15:00 19.5 C 71 % 14.1 C
161 15-06-2015 13:20:00 19.7 C 71 % 14.3 C
162 15-06-2015 13:25:00 19.6 C 70 % 13.98 C
163 15-06-2015 13:30:00 19.4 C 69 % 13.57 C
164 15-06-2015 13:35:00 19.3 C 71 % 13.91 C
165 15-06-2015 13:40:00 19.3 C 71 % 13.91 C
166 15-06-2015 13:45:00 19.4 C 71 % 14.01 C
167 15-06-2015 13:50:00 19.7 C 68 % 13.63 C
168 15-06-2015 13:55:00 19.9 C 69 % 14.05 C
169 15-06-2015 14:00:00 20.1 C 68 % 14.01 C
170 15-06-2015 14:05:00 19.8 C 68 % 13.73 C
171 15-06-2015 14:10:00 19.8 C 68 % 13.73 C
172 15-06-2015 14:15:00 19.8 C 67 % 13.5 C
173 15-06-2015 14:20:00 19.8 C 66 % 13.27 C
174 15-06-2015 14:25:00 19.7 C 68 % 13.63 C
175 15-06-2015 14:30:00 19.8 C 68 % 13.73 C
Sensor: Nr:Datum:Temp:Feuchte:Taupunkt:
Aussen-T/F 176 15-06-2015 14:35:00 19.8 C 67 % 13.5 C
177 15-06-2015 14:40:00 19.9 C 66 % 13.36 C
178 15-06-2015 14:45:00 19.8 C 67 % 13.5 C
179 15-06-2015 14:50:00 19.8 C 66 % 13.27 C
180 15-06-2015 14:55:00 19.6 C 68 % 13.54 C
181 15-06-2015 15:00:00 19.8 C 69 % 13.95 C
182 15-06-2015 15:05:00 20.2 C 65 % 13.41 C
183 15-06-2015 15:10:00 20.4 C 65 % 13.6 C
184 15-06-2015 15:15:00 20.5 C 64 % 13.46 C
185 15-06-2015 15:20:00 20.6 C 65 % 13.79 C
186 15-06-2015 15:25:00 20.6 C 65 % 13.79 C
187 15-06-2015 15:30:00 20.7 C 65 % 13.89 C
188 15-06-2015 15:35:00 20.9 C 64 % 13.84 C
189 15-06-2015 15:40:00 21.1 C 65 % 14.27 C
190 15-06-2015 15:45:00 21.4 C 66 % 14.79 C
191 15-06-2015 15:50:00 21.3 C 63 % 13.97 C
192 15-06-2015 15:55:00 21.1 C 65 % 14.27 C
193 15-06-2015 16:00:00 21.4 C 64 % 14.31 C
194 15-06-2015 16:05:00 21.7 C 64 % 14.6 C
195 15-06-2015 16:10:00 22.2 C 61 % 14.32 C
196 15-06-2015 16:15:00 22.2 C 58 % 13.55 C
197 15-06-2015 16:20:00 22 C 62 % 14.39 C
198 15-06-2015 16:25:00 21.8 C 60 % 13.69 C
199 15-06-2015 16:30:00 21.5 C 60 % 13.41 C
200 15-06-2015 16:35:00 21.1 C 61 % 13.29 C
Sensor: Nr:Datum:Temp:Feuchte:Taupunkt:
Aussen-T/F 201 15-06-2015 16:40:00 20.8 C 62 % 13.26 C
202 15-06-2015 16:45:00 20.6 C 62 % 13.07 C
203 15-06-2015 16:50:00 20.5 C 63 % 13.22 C
204 15-06-2015 16:55:00 20.9 C 63 % 13.6 C
205 15-06-2015 17:00:00 21.5 C 61 % 13.67 C
206 15-06-2015 17:05:00 21.7 C 60 % 13.6 C
207 15-06-2015 17:10:00 21.3 C 60 % 13.22 C
208 15-06-2015 17:15:00 20.9 C 60 % 12.85 C
209 15-06-2015 17:20:00 20.8 C 61 % 13.01 C
210 15-06-2015 17:25:00 21 C 61 % 13.2 C
211 15-06-2015 17:30:00 21.2 C 64 % 14.12 C
212 15-06-2015 17:35:00 21.6 C 59 % 13.25 C
213 15-06-2015 17:40:00 21.3 C 59 % 12.97 C
214 15-06-2015 17:45:00 21 C 58 % 12.43 C
215 15-06-2015 17:50:00 20.7 C 60 % 12.66 C
216 15-06-2015 17:55:00 20.6 C 60 % 12.57 C
217 15-06-2015 18:00:00 20.6 C 61 % 12.82 C
218 15-06-2015 18:05:00 20.7 C 61 % 12.91 C
219 15-06-2015 18:10:00 21.1 C 58 % 12.52 C
220 15-06-2015 18:15:00 21.3 C 58 % 12.71 C
221 15-06-2015 18:20:00 21.6 C 58 % 12.99 C
222 15-06-2015 18:25:00 21.7 C 58 % 13.08 C
223 15-06-2015 18:30:00 21.8 C 56 % 12.64 C
224 15-06-2015 18:35:00 21.7 C 55 % 12.27 C
225 15-06-2015 18:40:00 21.4 C 55 % 11.99 C
Sensor: Nr:Datum:Temp:Feuchte:Taupunkt:
Aussen-T/F 226 15-06-2015 18:45:00 21.1 C 56 % 11.99 C
227 15-06-2015 18:50:00 21 C 58 % 12.43 C
228 15-06-2015 18:55:00 21.3 C 56 % 12.17 C
229 15-06-2015 19:00:00 21.4 C 55 % 11.99 C
230 15-06-2015 19:05:00 21.4 C 56 % 12.27 C
231 15-06-2015 19:10:00 21.3 C 57 % 12.44 C
232 15-06-2015 19:15:00 21.4 C 57 % 12.53 C
233 15-06-2015 19:20:00 21.4 C 57 % 12.53 C
234 15-06-2015 19:25:00 21.4 C 56 % 12.27 C
235 15-06-2015 19:30:00 21.1 C 57 % 12.25 C
236 15-06-2015 19:35:00 20.8 C 58 % 12.24 C
237 15-06-2015 19:40:00 20.5 C 59 % 12.22 C
238 15-06-2015 19:45:00 20.2 C 61 % 12.44 C
239 15-06-2015 19:50:00 20.1 C 60 % 12.1 C
240 15-06-2015 19:55:00 20.1 C 60 % 12.1 C
241 15-06-2015 20:00:00 20.1 C 59 % 11.84 C
242 15-06-2015 20:05:00 20.2 C 59 % 11.94 C
243 15-06-2015 20:10:00 20.3 C 58 % 11.77 C
244 15-06-2015 20:15:00 20.4 C 57 % 11.6 C
245 15-06-2015 20:20:00 20.4 C 58 % 11.86 C
246 15-06-2015 20:25:00 20.3 C 58 % 11.77 C
247 15-06-2015 20:30:00 20.1 C 59 % 11.84 C
248 15-06-2015 20:35:00 20.1 C 58 % 11.58 C
249 15-06-2015 20:40:00 20 C 58 % 11.49 C
250 15-06-2015 20:45:00 19.8 C 58 % 11.3 C
Sensor: Nr:Datum:Temp:Feuchte:Taupunkt:
Aussen-T/F 251 15-06-2015 20:50:00 19.6 C 59 % 11.37 C
252 15-06-2015 20:55:00 19.4 C 58 % 10.93 C
253 15-06-2015 21:00:00 19.3 C 58 % 10.84 C
254 15-06-2015 21:05:00 19.2 C 58 % 10.74 C
255 15-06-2015 21:10:00 19.1 C 58 % 10.65 C
256 15-06-2015 21:15:00 19 C 58 % 10.56 C
257 15-06-2015 21:20:00 18.9 C 59 % 10.72 C
258 15-06-2015 21:25:00 18.7 C 59 % 10.53 C
259 15-06-2015 21:30:00 18.6 C 60 % 10.69 C
260 15-06-2015 21:35:00 18.6 C 59 % 10.44 C
261 15-06-2015 21:40:00 18.4 C 63 % 11.23 C
262 15-06-2015 21:45:00 18.4 C 63 % 11.23 C
263 15-06-2015 21:50:00 17.7 C 63 % 10.57 C
264 15-06-2015 21:55:00 17.7 C 63 % 10.57 C
265 15-06-2015 22:00:00 16.7 C 71 % 11.42 C
266 15-06-2015 22:05:00 16.6 C 71 % 11.32 C
267 15-06-2015 22:10:00 16.6 C 71 % 11.32 C
268 15-06-2015 22:15:00 16.6 C 71 % 11.32 C
269 15-06-2015 22:20:00 15.9 C 71 % 10.65 C
270 15-06-2015 22:25:00 15.9 C 71 % 10.65 C
271 15-06-2015 22:30:00 15.9 C 71 % 10.65 C
272 15-06-2015 22:35:00 15.9 C 71 % 10.65 C
273 15-06-2015 22:40:00 15.7 C 72 % 10.67 C
274 15-06-2015 22:45:00 15.7 C 72 % 10.67 C
275 15-06-2015 22:50:00 15.7 C 72 % 10.67 C
Sensor: Nr:Datum:Temp:Feuchte:Taupunkt:
Aussen-T/F 276 15-06-2015 22:55:00 15.7 C 72 % 10.67 C
277 15-06-2015 23:00:00 15.6 C 73 % 10.78 C
278 15-06-2015 23:05:00 15.5 C 73 % 10.69 C
279 15-06-2015 23:10:00 15.5 C 73 % 10.69 C
280 15-06-2015 23:15:00 15.5 C 73 % 10.69 C
281 15-06-2015 23:20:00 15.6 C 73 % 10.78 C
282 15-06-2015 23:25:00 15.6 C 73 % 10.78 C
283 15-06-2015 23:30:00 15.5 C 74 % 10.89 C
284 15-06-2015 23:35:00 15.3 C 74 % 10.7 C
285 15-06-2015 23:40:00 15.2 C 73 % 10.4 C
286 15-06-2015 23:45:00 15.1 C 73 % 10.3 C
287 15-06-2015 23:50:00 14.9 C 74 % 10.31 C
288 15-06-2015 23:55:00 14.8 C 74 % 10.22 C
289 16-06-2015 00:00:00 14.7 C 75 % 10.32 C
290 16-06-2015 00:05:00 14.6 C 75 % 10.22 C
291 16-06-2015 00:10:00 14.6 C 76 % 10.42 C
292 16-06-2015 00:15:00 14.6 C 76 % 10.42 C
293 16-06-2015 00:20:00 14.6 C 76 % 10.42 C
294 16-06-2015 00:25:00 14.6 C 76 % 10.42 C
295 16-06-2015 00:30:00 14.7 C 76 % 10.52 C
296 16-06-2015 00:35:00 14.7 C 76 % 10.52 C
297 16-06-2015 00:40:00 14.7 C 76 % 10.52 C
298 16-06-2015 00:45:00 14.6 C 76 % 10.42 C
299 16-06-2015 00:50:00 14.6 C 75 % 10.22 C
300 16-06-2015 00:55:00 14.5 C 76 % 10.32 C
Sensor: Nr:Datum:Temp:Feuchte:Taupunkt:
Aussen-T/F 301 16-06-2015 01:00:00 14.5 C 76 % 10.32 C
302 16-06-2015 01:05:00 14.5 C 75 % 10.13 C
303 16-06-2015 01:10:00 14.4 C 75 % 10.03 C
304 16-06-2015 01:15:00 14.4 C 75 % 10.03 C
305 16-06-2015 01:20:00 14.3 C 76 % 10.13 C
306 16-06-2015 01:25:00 14.2 C 76 % 10.03 C
307 16-06-2015 01:30:00 14.1 C 76 % 9.94 C
308 16-06-2015 01:35:00 13.8 C 76 % 9.65 C
309 16-06-2015 01:40:00 13.7 C 76 % 9.55 C
310 16-06-2015 01:45:00 13.5 C 78 % 9.74 C
311 16-06-2015 01:50:00 13.4 C 78 % 9.65 C
312 16-06-2015 01:55:00 13.3 C 78 % 9.55 C
313 16-06-2015 02:00:00 13.2 C 78 % 9.45 C
314 16-06-2015 02:05:00 13.3 C 78 % 9.55 C
315 16-06-2015 02:10:00 13.2 C 77 % 9.26 C
316 16-06-2015 02:15:00 13.2 C 77 % 9.26 C
317 16-06-2015 02:20:00 13.1 C 78 % 9.36 C
318 16-06-2015 02:25:00 13.1 C 78 % 9.36 C
319 16-06-2015 02:30:00 12.9 C 79 % 9.35 C
320 16-06-2015 02:35:00 12.8 C 78 % 9.06 C
321 16-06-2015 02:40:00 12.7 C 79 % 9.16 C
322 16-06-2015 02:45:00 12.7 C 80 % 9.34 C
323 16-06-2015 02:50:00 12.5 C 79 % 8.96 C
324 16-06-2015 02:55:00 12.4 C 80 % 9.05 C
325 16-06-2015 03:00:00 12.3 C 80 % 8.95 C
Sensor: Nr:Datum:Temp:Feuchte:Taupunkt:
Aussen-T/F 326 16-06-2015 03:05:00 12.2 C 80 % 8.86 C
327 16-06-2015 03:10:00 12.1 C 81 % 8.94 C
328 16-06-2015 03:15:00 12 C 81 % 8.84 C
329 16-06-2015 03:20:00 11.9 C 81 % 8.75 C
330 16-06-2015 03:25:00 11.8 C 82 % 8.83 C
331 16-06-2015 03:30:00 11.8 C 82 % 8.83 C
332 16-06-2015 03:35:00 11.7 C 82 % 8.73 C
333 16-06-2015 03:40:00 11.7 C 82 % 8.73 C
334 16-06-2015 03:45:00 11.7 C 82 % 8.73 C
335 16-06-2015 03:50:00 11.7 C 83 % 8.91 C
336 16-06-2015 03:55:00 11.9 C 81 % 8.75 C
337 16-06-2015 04:00:00 12.1 C 81 % 8.94 C
338 16-06-2015 04:05:00 12.3 C 80 % 8.95 C
339 16-06-2015 04:10:00 12.5 C 78 % 8.77 C
340 16-06-2015 04:15:00 12.7 C 76 % 8.58 C
341 16-06-2015 04:20:00 12.8 C 77 % 8.87 C
342 16-06-2015 04:25:00 12.8 C 77 % 8.87 C
343 16-06-2015 04:30:00 12.7 C 76 % 8.58 C
344 16-06-2015 04:35:00 12.6 C 77 % 8.68 C
345 16-06-2015 04:40:00 12.4 C 78 % 8.68 C
346 16-06-2015 04:45:00 12.2 C 77 % 8.29 C
347 16-06-2015 04:50:00 12.1 C 77 % 8.2 C
348 16-06-2015 04:55:00 11.9 C 79 % 8.38 C
349 16-06-2015 05:00:00 11.8 C 79 % 8.28 C
350 16-06-2015 05:05:00 11.7 C 79 % 8.18 C
Sensor: Nr:Datum:Temp:Feuchte:Taupunkt:
Aussen-T/F 351 16-06-2015 05:10:00 11.5 C 79 % 7.99 C
352 16-06-2015 05:15:00 11.4 C 80 % 8.08 C
353 16-06-2015 05:20:00 11.3 C 81 % 8.16 C
354 16-06-2015 05:25:00 11.2 C 81 % 8.06 C
355 16-06-2015 05:30:00 11.2 C 82 % 8.25 C
356 16-06-2015 05:35:00 11.2 C 80 % 7.88 C
357 16-06-2015 05:40:00 11.3 C 80 % 7.98 C
358 16-06-2015 05:45:00 11.3 C 79 % 7.8 C
359 16-06-2015 05:50:00 11.3 C 79 % 7.8 C
360 16-06-2015 05:55:00 11.3 C 80 % 7.98 C
361 16-06-2015 06:00:00 11.3 C 79 % 7.8 C
362 16-06-2015 06:05:00 11.2 C 81 % 8.06 C
363 16-06-2015 06:10:00 11.2 C 82 % 8.25 C
364 16-06-2015 06:15:00 11.1 C 81 % 7.97 C
365 16-06-2015 06:20:00 11.1 C 80 % 7.79 C
366 16-06-2015 06:25:00 11.1 C 80 % 7.79 C
367 16-06-2015 06:30:00 11.2 C 80 % 7.88 C
368 16-06-2015 06:35:00 11.2 C 80 % 7.88 C
369 16-06-2015 06:40:00 11.2 C 82 % 8.25 C
370 16-06-2015 06:45:00 11.1 C 83 % 8.33 C
371 16-06-2015 06:50:00 10.9 C 83 % 8.13 C
372 16-06-2015 06:55:00 10.8 C 84 % 8.21 C
373 16-06-2015 07:00:00 10.8 C 83 % 8.03 C
374 16-06-2015 07:05:00 10.8 C 84 % 8.21 C
375 16-06-2015 07:10:00 10.8 C 83 % 8.03 C
Sensor: Nr:Datum:Temp:Feuchte:Taupunkt:
Aussen-T/F 376 16-06-2015 07:15:00 10.9 C 84 % 8.31 C
377 16-06-2015 07:20:00 10.9 C 84 % 8.31 C
378 16-06-2015 07:25:00 10.9 C 83 % 8.13 C
379 16-06-2015 07:30:00 11.1 C 84 % 8.5 C
380 16-06-2015 07:35:00 11.2 C 84 % 8.6 C
381 16-06-2015 07:40:00 11.3 C 82 % 8.34 C
382 16-06-2015 07:45:00 11.4 C 82 % 8.44 C
383 16-06-2015 07:50:00 11.6 C 82 % 8.64 C
384 16-06-2015 07:55:00 11.8 C 81 % 8.65 C
385 16-06-2015 08:00:00 12 C 81 % 8.84 C
386 16-06-2015 08:05:00 12.3 C 82 % 9.32 C
387 16-06-2015 08:10:00 12.4 C 79 % 8.86 C
388 16-06-2015 08:15:00 12.6 C 79 % 9.06 C
389 16-06-2015 08:20:00 12.8 C 78 % 9.06 C
390 16-06-2015 08:25:00 13 C 76 % 8.87 C
391 16-06-2015 08:30:00 13.4 C 76 % 9.26 C
392 16-06-2015 08:35:00 13.8 C 75 % 9.45 C
393 16-06-2015 08:40:00 14.1 C 74 % 9.54 C
394 16-06-2015 08:45:00 14.2 C 72 % 9.23 C
395 16-06-2015 08:50:00 14.3 C 72 % 9.33 C
396 16-06-2015 08:55:00 14.3 C 71 % 9.12 C
397 16-06-2015 09:00:00 14.3 C 71 % 9.12 C
398 16-06-2015 09:05:00 14.3 C 71 % 9.12 C
399 16-06-2015 09:10:00 14.4 C 71 % 9.21 C
400 16-06-2015 09:15:00 14.5 C 71 % 9.31 C
Sensor: Nr:Datum:Temp:Feuchte:Taupunkt:
Aussen-T/F 401 16-06-2015 09:20:00 14.7 C 69 % 9.08 C
402 16-06-2015 09:25:00 14.8 C 70 % 9.39 C
403 16-06-2015 09:30:00 15 C 69 % 9.36 C
404 16-06-2015 09:35:00 15.1 C 67 % 9.02 C
405 16-06-2015 09:40:00 15.1 C 69 % 9.46 C
406 16-06-2015 09:45:00 15.2 C 68 % 9.34 C
407 16-06-2015 09:50:00 15.3 C 67 % 9.21 C
408 16-06-2015 09:55:00 15.5 C 66 % 9.18 C
409 16-06-2015 10:00:00 15.7 C 66 % 9.37 C
410 16-06-2015 10:05:00 16 C 65 % 9.43 C
411 16-06-2015 10:10:00 16.1 C 65 % 9.53 C
412 16-06-2015 10:15:00 16.1 C 65 % 9.53 C
413 16-06-2015 10:20:00 16.1 C 64 % 9.29 C
414 16-06-2015 10:25:00 16.3 C 64 % 9.48 C
415 16-06-2015 10:30:00 16.4 C 64 % 9.58 C
416 16-06-2015 10:35:00 17.1 C 61 % 9.53 C
417 16-06-2015 10:40:00 17.4 C 61 % 9.81 C
418 16-06-2015 10:45:00 17.6 C 60 % 9.75 C
419 16-06-2015 10:50:00 17.6 C 58 % 9.25 C
420 16-06-2015 10:55:00 17.7 C 59 % 9.59 C
421 16-06-2015 11:00:00 17.9 C 58 % 9.53 C
422 16-06-2015 11:05:00 17.9 C 58 % 9.53 C
423 16-06-2015 11:10:00 18.1 C 58 % 9.71 C
424 16-06-2015 11:15:00 18 C 58 % 9.62 C
425 16-06-2015 11:20:00 18.2 C 57 % 9.55 C
Sensor: Nr:Datum:Temp:Feuchte:Taupunkt:
Aussen-T/F 426 16-06-2015 11:25:00 18.3 C 56 % 9.38 C
427 16-06-2015 11:30:00 18.4 C 58 % 9.99 C
428 16-06-2015 11:35:00 18.5 C 58 % 10.09 C
429 16-06-2015 11:40:00 18.8 C 55 % 9.58 C
430 16-06-2015 11:45:00 19.2 C 51 % 8.83 C
431 16-06-2015 11:50:00 19.3 C 49 % 8.33 C
432 16-06-2015 11:55:00 19.3 C 49 % 8.33 C
433 16-06-2015 12:00:00 19.2 C 50 % 8.53 C
434 16-06-2015 12:05:00 19.1 C 51 % 8.73 C
435 16-06-2015 12:10:00 19.1 C 49 % 8.15 C
436 16-06-2015 12:15:00 19.3 C 51 % 8.92 C
437 16-06-2015 12:20:00 19.7 C 49 % 8.7 C
438 16-06-2015 12:25:00 19.7 C 49 % 8.7 C
439 16-06-2015 12:30:00 19.4 C 48 % 8.12 C
440 16-06-2015 12:35:00 19.3 C 49 % 8.33 C
441 16-06-2015 12:40:00 19.3 C 51 % 8.92 C
442 16-06-2015 12:45:00 19.2 C 48 % 7.93 C
443 16-06-2015 12:50:00 19.4 C 51 % 9.01 C
444 16-06-2015 12:55:00 19.4 C 48 % 8.12 C
445 16-06-2015 13:00:00 19.4 C 51 % 9.01 C
446 16-06-2015 13:05:00 19.6 C 48 % 8.3 C
447 16-06-2015 13:10:00 19.7 C 48 % 8.39 C
448 16-06-2015 13:15:00 19.7 C 47 % 8.08 C
449 16-06-2015 13:20:00 19.7 C 47 % 8.08 C
450 16-06-2015 13:25:00 19.5 C 48 % 8.21 C
Sensor: Nr:Datum:Temp:Feuchte:Taupunkt:
Aussen-T/F 451 16-06-2015 13:30:00 19.3 C 48 % 8.03 C
452 16-06-2015 13:35:00 19.1 C 50 % 8.44 C
453 16-06-2015 13:40:00 19.2 C 50 % 8.53 C
454 16-06-2015 13:45:00 19.3 C 48 % 8.03 C
455 16-06-2015 13:50:00 19.2 C 50 % 8.53 C
456 16-06-2015 13:55:00 19.2 C 49 % 8.24 C
457 16-06-2015 14:00:00 19.2 C 50 % 8.53 C
458 16-06-2015 14:05:00 19.3 C 50 % 8.63 C
459 16-06-2015 14:10:00 19.3 C 51 % 8.92 C
460 16-06-2015 14:15:00 18.9 C 51 % 8.55 C
461 16-06-2015 14:20:00 18.5 C 52 % 8.47 C
462 16-06-2015 14:25:00 18.4 C 52 % 8.38 C
463 16-06-2015 14:30:00 18.4 C 52 % 8.38 C
464 16-06-2015 14:35:00 18.4 C 51 % 8.09 C
465 16-06-2015 14:40:00 18.4 C 52 % 8.38 C
466 16-06-2015 14:45:00 18.6 C 53 % 8.84 C
467 16-06-2015 14:50:00 18.7 C 52 % 8.65 C
468 16-06-2015 14:55:00 18.5 C 51 % 8.18 C
469 16-06-2015 15:00:00 18.3 C 51 % 8 C
470 16-06-2015 15:05:00 18 C 50 % 7.43 C
471 16-06-2015 15:10:00 17.9 C 55 % 8.74 C
472 16-06-2015 15:15:00 18.1 C 53 % 8.38 C
473 16-06-2015 15:20:00 18.4 C 51 % 8.09 C
474 16-06-2015 15:25:00 18.6 C 51 % 8.27 C
475 16-06-2015 15:30:00 18.8 C 51 % 8.46 C
Sensor: Nr:Datum:Temp:Feuchte:Taupunkt:
Aussen-T/F 476 16-06-2015 15:35:00 18.8 C 51 % 8.46 C
477 16-06-2015 15:40:00 18.8 C 49 % 7.87 C
478 16-06-2015 15:45:00 18.9 C 50 % 8.26 C
479 16-06-2015 15:50:00 18.8 C 49 % 7.87 C
480 16-06-2015 15:55:00 18.7 C 50 % 8.08 C
481 16-06-2015 16:00:00 18.6 C 49 % 7.69 C
482 16-06-2015 16:05:00 18.4 C 53 % 8.66 C
483 16-06-2015 16:10:00 18.3 C 51 % 8 C
484 16-06-2015 16:15:00 18.1 C 53 % 8.38 C
485 16-06-2015 16:20:00 17.9 C 54 % 8.47 C
486 16-06-2015 16:25:00 17.9 C 53 % 8.19 C
487 16-06-2015 16:30:00 17.9 C 54 % 8.47 C
488 16-06-2015 16:35:00 18.2 C 54 % 8.75 C
489 16-06-2015 16:40:00 18.4 C 52 % 8.38 C
490 16-06-2015 16:45:00 18.7 C 52 % 8.65 C
491 16-06-2015 16:50:00 18.7 C 52 % 8.65 C
492 16-06-2015 16:55:00 18.6 C 52 % 8.56 C
493 16-06-2015 17:00:00 18.6 C 53 % 8.84 C
494 16-06-2015 17:05:00 18.5 C 53 % 8.75 C
495 16-06-2015 17:10:00 18.5 C 53 % 8.75 C
496 16-06-2015 17:15:00 18.8 C 55 % 9.58 C
497 16-06-2015 17:20:00 19.3 C 54 % 9.77 C
498 16-06-2015 17:25:00 19.6 C 51 % 9.2 C
499 16-06-2015 17:30:00 19.5 C 53 % 9.67 C
500 16-06-2015 17:35:00 19.7 C 51 % 9.29 C
Sensor: Nr:Datum:Temp:Feuchte:Taupunkt:
Aussen-T/F 501 16-06-2015 17:40:00 20.1 C 50 % 9.36 C
502 16-06-2015 17:45:00 19.6 C 50 % 8.9 C
503 16-06-2015 17:50:00 19.5 C 52 % 9.39 C
504 16-06-2015 17:55:00 19.5 C 50 % 8.81 C
505 16-06-2015 18:00:00 19.4 C 50 % 8.72 C
506 16-06-2015 18:05:00 19.4 C 50 % 8.72 C
507 16-06-2015 18:10:00 19.4 C 50 % 8.72 C
508 16-06-2015 18:15:00 19.6 C 50 % 8.9 C
509 16-06-2015 18:20:00 19.7 C 49 % 8.7 C
510 16-06-2015 18:25:00 19.9 C 47 % 8.26 C
511 16-06-2015 18:30:00 19.9 C 47 % 8.26 C
512 16-06-2015 18:35:00 19.7 C 47 % 8.08 C
513 16-06-2015 18:40:00 19.6 C 47 % 7.99 C
514 16-06-2015 18:45:00 19.7 C 48 % 8.39 C
515 16-06-2015 18:50:00 19.9 C 46 % 7.95 C
516 16-06-2015 18:55:00 19.8 C 45 % 7.53 C
517 16-06-2015 19:00:00 19.9 C 44 % 7.3 C
518 16-06-2015 19:05:00 19.9 C 43 % 6.96 C
519 16-06-2015 19:10:00 19.8 C 44 % 7.21 C
520 16-06-2015 19:15:00 19.7 C 45 % 7.44 C
521 16-06-2015 19:20:00 19.6 C 46 % 7.67 C
522 16-06-2015 19:25:00 19.3 C 43 % 6.42 C
523 16-06-2015 19:30:00 19.1 C 45 % 6.9 C
524 16-06-2015 19:35:00 18.8 C 44 % 6.3 C
525 16-06-2015 19:40:00 18.7 C 44 % 6.21 C
Sensor: Nr:Datum:Temp:Feuchte:Taupunkt:
Aussen-T/F 526 16-06-2015 19:45:00 18.7 C 44 % 6.21 C
527 16-06-2015 19:50:00 18.5 C 44 % 6.03 C
528 16-06-2015 19:55:00 18.3 C 44 % 5.85 C
529 16-06-2015 20:00:00 18.2 C 45 % 6.08 C
530 16-06-2015 20:05:00 18.2 C 45 % 6.08 C
531 16-06-2015 20:10:00 18.2 C 46 % 6.4 C
532 16-06-2015 20:15:00 18.1 C 46 % 6.31 C
533 16-06-2015 20:20:00 17.9 C 45 % 5.81 C
534 16-06-2015 20:25:00 17.8 C 45 % 5.72 C
535 16-06-2015 20:30:00 17.7 C 44 % 5.31 C
536 16-06-2015 20:35:00 17.6 C 45 % 5.54 C
537 16-06-2015 20:40:00 17.6 C 45 % 5.54 C
538 16-06-2015 20:45:00 17.6 C 45 % 5.54 C
539 16-06-2015 20:50:00 17.5 C 45 % 5.45 C
540 16-06-2015 20:55:00 17.3 C 45 % 5.27 C
541 16-06-2015 21:00:00 17.3 C 45 % 5.27 C
542 16-06-2015 21:05:00 17.1 C 46 % 5.4 C
543 16-06-2015 21:10:00 16.9 C 45 % 4.9 C
544 16-06-2015 21:15:00 16.8 C 45 % 4.81 C
545 16-06-2015 21:20:00 16.6 C 45 % 4.63 C
546 16-06-2015 21:25:00 16.4 C 47 % 5.07 C
547 16-06-2015 21:30:00 16.3 C 48 % 5.28 C
548 16-06-2015 21:35:00 16.2 C 49 % 5.49 C
549 16-06-2015 21:40:00 16 C 50 % 5.59 C
550 16-06-2015 21:45:00 15.9 C 51 % 5.79 C
Sensor: Nr:Datum:Temp:Feuchte:Taupunkt:
Aussen-T/F 551 16-06-2015 21:50:00 15.8 C 52 % 5.97 C
552 16-06-2015 21:55:00 15.7 C 53 % 6.16 C
553 16-06-2015 22:00:00 15.6 C 53 % 6.06 C
554 16-06-2015 22:05:00 15.4 C 54 % 6.15 C
555 16-06-2015 22:10:00 15.3 C 55 % 6.32 C
556 16-06-2015 22:15:00 15.2 C 55 % 6.23 C
557 16-06-2015 22:20:00 15.1 C 56 % 6.4 C
558 16-06-2015 22:25:00 14.9 C 57 % 6.47 C
559 16-06-2015 22:30:00 14.8 C 58 % 6.63 C
560 16-06-2015 22:35:00 14.6 C 58 % 6.44 C
561 16-06-2015 22:40:00 14.3 C 61 % 6.89 C
562 16-06-2015 22:45:00 14.1 C 61 % 6.7 C
563 16-06-2015 22:50:00 13.9 C 61 % 6.51 C
564 16-06-2015 22:55:00 13.9 C 62 % 6.75 C
565 16-06-2015 23:00:00 13.7 C 63 % 6.79 C
566 16-06-2015 23:05:00 13.3 C 65 % 6.87 C
567 16-06-2015 23:10:00 13 C 67 % 7.02 C
568 16-06-2015 23:15:00 12.7 C 67 % 6.74 C
569 16-06-2015 23:20:00 12.5 C 69 % 6.97 C
570 16-06-2015 23:25:00 12.3 C 69 % 6.78 C
571 16-06-2015 23:30:00 12.2 C 69 % 6.69 C
572 16-06-2015 23:35:00 12.1 C 70 % 6.8 C
573 16-06-2015 23:40:00 11.9 C 71 % 6.82 C
574 16-06-2015 23:45:00 11.7 C 72 % 6.83 C
575 16-06-2015 23:50:00 11.6 C 73 % 6.93 C
Sensor: Nr:Datum:Temp:Feuchte:Taupunkt:
Aussen-T/F 576 16-06-2015 23:55:00 11.4 C 74 % 6.94 C
577 17-06-2015 00:00:00 11.3 C 74 % 6.84 C
578 17-06-2015 00:05:00 11.3 C 74 % 6.84 C
579 17-06-2015 00:10:00 11.2 C 75 % 6.94 C
580 17-06-2015 00:15:00 11.2 C 75 % 6.94 C
581 17-06-2015 00:20:00 11.1 C 75 % 6.84 C
582 17-06-2015 00:25:00 11.1 C 76 % 7.04 C
583 17-06-2015 00:30:00 11 C 76 % 6.94 C
584 17-06-2015 00:35:00 10.9 C 76 % 6.84 C
585 17-06-2015 00:40:00 10.8 C 76 % 6.75 C
586 17-06-2015 00:45:00 10.8 C 77 % 6.94 C
587 17-06-2015 00:50:00 10.7 C 77 % 6.84 C
588 17-06-2015 00:55:00 10.7 C 78 % 7.03 C
589 17-06-2015 01:00:00 10.6 C 78 % 6.93 C
590 17-06-2015 01:05:00 10.5 C 79 % 7.02 C
591 17-06-2015 01:10:00 10.4 C 79 % 6.92 C
592 17-06-2015 01:15:00 10.4 C 80 % 7.1 C
593 17-06-2015 01:20:00 10.3 C 80 % 7.01 C
594 17-06-2015 01:25:00 10.3 C 80 % 7.01 C
595 17-06-2015 01:30:00 10.2 C 80 % 6.91 C
596 17-06-2015 01:35:00 10.2 C 80 % 6.91 C
597 17-06-2015 01:40:00 10.1 C 81 % 6.99 C
598 17-06-2015 01:45:00 10 C 81 % 6.89 C
599 17-06-2015 01:50:00 9.9 C 81 % 6.8 C
600 17-06-2015 01:55:00 9.9 C 82 % 6.98 C
Sensor: Nr:Datum:Temp:Feuchte:Taupunkt:
Aussen-T/F 601 17-06-2015 02:00:00 9.9 C 82 % 6.98 C
602 17-06-2015 02:05:00 9.8 C 83 % 7.05 C
603 17-06-2015 02:10:00 9.8 C 83 % 7.05 C
604 17-06-2015 02:15:00 9.8 C 83 % 7.05 C
605 17-06-2015 02:20:00 9.7 C 83 % 6.96 C
606 17-06-2015 02:25:00 9.7 C 84 % 7.13 C
607 17-06-2015 02:30:00 9.6 C 84 % 7.03 C
608 17-06-2015 02:35:00 9.6 C 83 % 6.86 C
609 17-06-2015 02:40:00 9.6 C 84 % 7.03 C
610 17-06-2015 02:45:00 9.5 C 84 % 6.94 C
611 17-06-2015 02:50:00 9.4 C 84 % 6.84 C
612 17-06-2015 02:55:00 9.4 C 84 % 6.84 C
613 17-06-2015 03:00:00 9.3 C 84 % 6.74 C
614 17-06-2015 03:05:00 9.3 C 85 % 6.91 C
615 17-06-2015 03:10:00 9.2 C 85 % 6.81 C
616 17-06-2015 03:15:00 9.1 C 85 % 6.72 C
617 17-06-2015 03:20:00 8.9 C 85 % 6.52 C
618 17-06-2015 03:25:00 8.8 C 86 % 6.59 C
619 17-06-2015 03:30:00 8.7 C 87 % 6.66 C
620 17-06-2015 03:35:00 8.7 C 87 % 6.66 C
621 17-06-2015 03:40:00 8.6 C 87 % 6.56 C
622 17-06-2015 03:45:00 8.6 C 87 % 6.56 C
623 17-06-2015 03:50:00 8.4 C 88 % 6.53 C
624 17-06-2015 03:55:00 8.4 C 88 % 6.53 C
625 17-06-2015 04:00:00 8.3 C 88 % 6.43 C
Sensor: Nr:Datum:Temp:Feuchte:Taupunkt:
Aussen-T/F 626 17-06-2015 04:05:00 8.3 C 89 % 6.6 C
627 17-06-2015 04:10:00 8.2 C 89 % 6.5 C
628 17-06-2015 04:15:00 8.2 C 89 % 6.5 C
629 17-06-2015 04:20:00 8.1 C 89 % 6.4 C
630 17-06-2015 04:25:00 8 C 90 % 6.46 C
631 17-06-2015 04:30:00 7.9 C 90 % 6.36 C
632 17-06-2015 04:35:00 7.9 C 90 % 6.36 C
633 17-06-2015 04:40:00 7.9 C 90 % 6.36 C
634 17-06-2015 04:45:00 7.8 C 90 % 6.27 C
635 17-06-2015 04:50:00 7.8 C 90 % 6.27 C
636 17-06-2015 04:55:00 7.7 C 91 % 6.33 C
637 17-06-2015 05:00:00 7.7 C 91 % 6.33 C
638 17-06-2015 05:05:00 7.7 C 91 % 6.33 C
639 17-06-2015 05:10:00 7.6 C 91 % 6.23 C
640 17-06-2015 05:15:00 7.6 C 91 % 6.23 C
641 17-06-2015 05:20:00 7.5 C 91 % 6.13 C
642 17-06-2015 05:25:00 7.5 C 92 % 6.29 C
643 17-06-2015 05:30:00 7.4 C 92 % 6.19 C
644 17-06-2015 05:35:00 7.4 C 92 % 6.19 C
645 17-06-2015 05:40:00 7.4 C 92 % 6.19 C
646 17-06-2015 05:45:00 7.4 C 92 % 6.19 C
647 17-06-2015 05:50:00 7.4 C 92 % 6.19 C
648 17-06-2015 05:55:00 7.4 C 92 % 6.19 C
649 17-06-2015 06:00:00 7.4 C 92 % 6.19 C
650 17-06-2015 06:05:00 7.4 C 92 % 6.19 C
Sensor: Nr:Datum:Temp:Feuchte:Taupunkt:
Aussen-T/F 651 17-06-2015 06:10:00 7.4 C 92 % 6.19 C
652 17-06-2015 06:15:00 7.4 C 92 % 6.19 C
653 17-06-2015 06:20:00 7.4 C 93 % 6.34 C
654 17-06-2015 06:25:00 7.4 C 93 % 6.34 C
655 17-06-2015 06:30:00 7.4 C 93 % 6.34 C
656 17-06-2015 06:35:00 7.5 C 93 % 6.44 C
657 17-06-2015 06:40:00 7.5 C 93 % 6.44 C
658 17-06-2015 06:45:00 7.6 C 93 % 6.54 C
659 17-06-2015 06:50:00 7.6 C 93 % 6.54 C
660 17-06-2015 06:55:00 7.6 C 93 % 6.54 C
661 17-06-2015 07:00:00 7.7 C 93 % 6.64 C
662 17-06-2015 07:05:00 7.7 C 93 % 6.64 C
663 17-06-2015 07:10:00 7.8 C 93 % 6.74 C
664 17-06-2015 07:15:00 7.8 C 93 % 6.74 C
665 17-06-2015 07:20:00 7.9 C 93 % 6.84 C
666 17-06-2015 07:25:00 8.1 C 93 % 7.04 C
667 17-06-2015 07:30:00 8.2 C 93 % 7.14 C
668 17-06-2015 07:35:00 8.2 C 93 % 7.14 C
669 17-06-2015 07:40:00 8.3 C 93 % 7.24 C
670 17-06-2015 07:45:00 8.4 C 93 % 7.34 C
671 17-06-2015 07:50:00 8.6 C 93 % 7.53 C
672 17-06-2015 07:55:00 8.8 C 93 % 7.73 C
673 17-06-2015 08:00:00 9.1 C 93 % 8.03 C
674 17-06-2015 08:05:00 9.4 C 92 % 8.17 C
675 17-06-2015 08:10:00 9.8 C 91 % 8.4 C
Sensor: Nr:Datum:Temp:Feuchte:Taupunkt:
Aussen-T/F 676 17-06-2015 08:15:00 10.1 C 90 % 8.54 C
677 17-06-2015 08:20:00 10.4 C 89 % 8.67 C
678 17-06-2015 08:25:00 10.7 C 88 % 8.8 C
679 17-06-2015 08:30:00 11.1 C 88 % 9.19 C
680 17-06-2015 08:35:00 11.3 C 86 % 9.05 C
681 17-06-2015 08:40:00 11.7 C 85 % 9.27 C
682 17-06-2015 08:45:00 12 C 84 % 9.38 C
683 17-06-2015 08:50:00 12.3 C 82 % 9.32 C
684 17-06-2015 08:55:00 12.5 C 82 % 9.51 C
685 17-06-2015 09:00:00 12.7 C 80 % 9.34 C
686 17-06-2015 09:05:00 12.9 C 80 % 9.54 C
687 17-06-2015 09:10:00 13.2 C 79 % 9.64 C
688 17-06-2015 09:15:00 13.3 C 77 % 9.36 C
689 17-06-2015 09:20:00 13.3 C 75 % 8.97 C
690 17-06-2015 09:25:00 13.3 C 73 % 8.57 C
691 17-06-2015 09:30:00 13.2 C 75 % 8.87 C
692 17-06-2015 09:35:00 13.2 C 75 % 8.87 C
693 17-06-2015 09:40:00 13.3 C 73 % 8.57 C
694 17-06-2015 09:45:00 13.5 C 73 % 8.76 C
695 17-06-2015 09:50:00 13.9 C 71 % 8.73 C
696 17-06-2015 09:55:00 14.4 C 69 % 8.79 C
697 17-06-2015 10:00:00 14.8 C 69 % 9.17 C
698 17-06-2015 10:05:00 15.1 C 66 % 8.8 C
699 17-06-2015 10:10:00 15.1 C 66 % 8.8 C
700 17-06-2015 10:15:00 16.2 C 62 % 8.92 C
Sensor: Nr:Datum:Temp:Feuchte:Taupunkt:
Aussen-T/F 701 17-06-2015 10:20:00 16.3 C 61 % 8.77 C
702 17-06-2015 10:25:00 16.6 C 60 % 8.81 C
703 17-06-2015 10:30:00 16.7 C 59 % 8.66 C
704 17-06-2015 10:35:00 16.8 C 57 % 8.24 C
705 17-06-2015 10:40:00 17.1 C 59 % 9.03 C
706 17-06-2015 10:45:00 17.1 C 55 % 8 C
707 17-06-2015 10:50:00 17.1 C 57 % 8.52 C
708 17-06-2015 10:55:00 17.3 C 56 % 8.45 C
709 17-06-2015 11:00:00 17.6 C 52 % 7.64 C
710 17-06-2015 11:05:00 17.8 C 51 % 7.54 C
711 17-06-2015 11:10:00 17.9 C 51 % 7.63 C
712 17-06-2015 11:15:00 17.9 C 52 % 7.91 C
713 17-06-2015 11:20:00 18.1 C 52 % 8.1 C
714 17-06-2015 11:25:00 18.1 C 48 % 6.93 C
715 17-06-2015 11:30:00 18.1 C 50 % 7.52 C
716 17-06-2015 11:35:00 18.3 C 46 % 6.49 C
717 17-06-2015 11:40:00 18.4 C 44 % 5.94 C
718 17-06-2015 11:45:00 18.4 C 46 % 6.58 C
719 17-06-2015 11:50:00 18.6 C 44 % 6.12 C
720 17-06-2015 11:55:00 18.9 C 47 % 7.35 C
721 17-06-2015 12:00:00 19 C 45 % 6.81 C
722 17-06-2015 12:05:00 19.1 C 44 % 6.57 C
723 17-06-2015 12:10:00 19.1 C 45 % 6.9 C
724 17-06-2015 12:15:00 19.3 C 48 % 8.03 C
725 17-06-2015 12:20:00 19.6 C 44 % 7.03 C
Sensor: Nr:Datum:Temp:Feuchte:Taupunkt:
Aussen-T/F 726 17-06-2015 12:25:00 19.3 C 46 % 7.4 C
727 17-06-2015 12:30:00 19.3 C 46 % 7.4 C
728 17-06-2015 12:35:00 19.3 C 43 % 6.42 C
729 17-06-2015 12:40:00 19.4 C 47 % 7.81 C
730 17-06-2015 12:45:00 19.4 C 44 % 6.84 C
731 17-06-2015 12:50:00 19.6 C 43 % 6.69 C
732 17-06-2015 12:55:00 19.8 C 44 % 7.21 C
733 17-06-2015 13:00:00 20.1 C 44 % 7.48 C
734 17-06-2015 13:05:00 19.9 C 44 % 7.3 C
735 17-06-2015 13:10:00 20.1 C 47 % 8.45 C
736 17-06-2015 13:15:00 20.4 C 46 % 8.4 C
737 17-06-2015 13:20:00 20.6 C 45 % 8.26 C
738 17-06-2015 13:25:00 20.7 C 42 % 7.34 C
739 17-06-2015 13:30:00 20.7 C 42 % 7.34 C
740 17-06-2015 13:35:00 20.8 C 42 % 7.43 C
741 17-06-2015 13:40:00 20.8 C 43 % 7.77 C
742 17-06-2015 13:45:00 20.8 C 43 % 7.77 C
743 17-06-2015 13:50:00 21.1 C 43 % 8.04 C
744 17-06-2015 13:55:00 21.2 C 41 % 7.44 C
745 17-06-2015 14:00:00 21.1 C 42 % 7.7 C
746 17-06-2015 14:05:00 21.1 C 41 % 7.35 C
747 17-06-2015 14:10:00 20.9 C 45 % 8.53 C
748 17-06-2015 14:15:00 20.9 C 44 % 8.2 C
749 17-06-2015 14:20:00 21.2 C 43 % 8.13 C
750 17-06-2015 14:25:00 21.4 C 44 % 8.65 C
Sensor: Nr:Datum:Temp:Feuchte:Taupunkt:
Aussen-T/F 751 17-06-2015 14:30:00 21.5 C 42 % 8.06 C
752 17-06-2015 14:35:00 21.6 C 42 % 8.15 C
753 17-06-2015 14:40:00 21.6 C 43 % 8.49 C
754 17-06-2015 14:45:00 21.5 C 42 % 8.06 C
755 17-06-2015 14:50:00 21.7 C 42 % 8.24 C
756 17-06-2015 14:55:00 21.9 C 45 % 9.44 C
757 17-06-2015 15:00:00 22.1 C 42 % 8.6 C
758 17-06-2015 15:05:00 22 C 39 % 7.42 C
759 17-06-2015 15:10:00 22.4 C 40 % 8.15 C
760 17-06-2015 15:15:00 22.4 C 42 % 8.87 C
761 17-06-2015 15:20:00 22.4 C 41 % 8.51 C
762 17-06-2015 15:25:00 22.5 C 41 % 8.6 C
763 17-06-2015 15:30:00 22.1 C 41 % 8.24 C
764 17-06-2015 15:35:00 21.9 C 40 % 7.7 C
765 17-06-2015 15:40:00 21.8 C 43 % 8.67 C
766 17-06-2015 15:45:00 22.1 C 42 % 8.6 C
767 17-06-2015 15:50:00 22.4 C 41 % 8.51 C
768 17-06-2015 15:55:00 22.6 C 40 % 8.33 C
769 17-06-2015 16:00:00 22.4 C 39 % 7.78 C
770 17-06-2015 16:05:00 22.2 C 41 % 8.33 C
771 17-06-2015 16:10:00 22 C 41 % 8.15 C
772 17-06-2015 16:15:00 22.1 C 41 % 8.24 C
773 17-06-2015 16:20:00 22.4 C 41 % 8.51 C
774 17-06-2015 16:25:00 22.7 C 39 % 8.04 C
775 17-06-2015 16:30:00 22.6 C 38 % 7.57 C
Sensor: Nr:Datum:Temp:Feuchte:Taupunkt:
Aussen-T/F 776 17-06-2015 16:35:00 22.5 C 40 % 8.24 C
777 17-06-2015 16:40:00 22.5 C 41 % 8.6 C
778 17-06-2015 16:45:00 22.3 C 42 % 8.78 C
779 17-06-2015 16:50:00 22.4 C 41 % 8.51 C
780 17-06-2015 16:55:00 22.4 C 40 % 8.15 C
781 17-06-2015 17:00:00 22.3 C 40 % 8.06 C
782 17-06-2015 17:05:00 22.2 C 41 % 8.33 C
783 17-06-2015 17:10:00 22.3 C 42 % 8.78 C
784 17-06-2015 17:15:00 22.8 C 42 % 9.23 C
785 17-06-2015 17:20:00 23.2 C 39 % 8.49 C
786 17-06-2015 17:25:00 23.4 C 39 % 8.67 C
787 17-06-2015 17:30:00 23.7 C 39 % 8.93 C
788 17-06-2015 17:35:00 23.9 C 39 % 9.11 C
789 17-06-2015 17:40:00 24.1 C 39 % 9.29 C
790 17-06-2015 17:45:00 24.3 C 38 % 9.08 C
791 17-06-2015 17:50:00 24.4 C 37 % 8.78 C
792 17-06-2015 17:55:00 24.5 C 37 % 8.86 C
793 17-06-2015 18:00:00 24.3 C 38 % 9.08 C
794 17-06-2015 18:05:00 24 C 39 % 9.2 C
795 17-06-2015 18:10:00 23.8 C 37 % 8.25 C
796 17-06-2015 18:15:00 23.7 C 39 % 8.93 C
797 17-06-2015 18:20:00 23.6 C 40 % 9.22 C
798 17-06-2015 18:25:00 23.5 C 40 % 9.13 C
799 17-06-2015 18:30:00 23.3 C 41 % 9.32 C
800 17-06-2015 18:35:00 23.1 C 42 % 9.5 C
Sensor: Nr:Datum:Temp:Feuchte:Taupunkt:
Aussen-T/F 801 17-06-2015 18:40:00 23.2 C 41 % 9.23 C
802 17-06-2015 18:45:00 23.6 C 42 % 9.94 C
803 17-06-2015 18:50:00 23.9 C 38 % 8.73 C
804 17-06-2015 18:55:00 24 C 39 % 9.2 C
805 17-06-2015 19:00:00 23.7 C 39 % 8.93 C
806 17-06-2015 19:05:00 23.3 C 40 % 8.95 C
807 17-06-2015 19:10:00 23 C 41 % 9.05 C
808 17-06-2015 19:15:00 22.7 C 44 % 9.83 C
809 17-06-2015 19:20:00 22.7 C 43 % 9.49 C
810 17-06-2015 19:25:00 22.6 C 42 % 9.05 C
811 17-06-2015 19:30:00 22.3 C 43 % 9.13 C
812 17-06-2015 19:35:00 22.1 C 45 % 9.62 C
813 17-06-2015 19:40:00 21.9 C 51 % 11.31 C
814 17-06-2015 19:45:00 21.7 C 52 % 11.42 C
815 17-06-2015 19:50:00 21.3 C 53 % 11.34 C
816 17-06-2015 19:55:00 20.9 C 57 % 12.07 C
817 17-06-2015 20:00:00 20.4 C 60 % 12.38 C
818 17-06-2015 20:05:00 20.1 C 63 % 12.84 C
819 17-06-2015 20:10:00 19.9 C 64 % 12.89 C
820 17-06-2015 20:15:00 19.8 C 63 % 12.56 C
821 17-06-2015 20:20:00 19.8 C 63 % 12.56 C
822 17-06-2015 20:25:00 19.6 C 64 % 12.61 C
823 17-06-2015 20:30:00 19.3 C 64 % 12.32 C
824 17-06-2015 20:35:00 19.1 C 64 % 12.14 C
825 17-06-2015 20:40:00 18.6 C 67 % 12.36 C
Sensor: Nr:Datum:Temp:Feuchte:Taupunkt:
Aussen-T/F 826 17-06-2015 20:45:00 18.6 C 67 % 12.36 C
827 17-06-2015 20:50:00 18 C 68 % 12.01 C
828 17-06-2015 20:55:00 17.8 C 69 % 12.04 C
829 17-06-2015 21:00:00 17.6 C 68 % 11.63 C
830 17-06-2015 21:05:00 17.4 C 68 % 11.44 C
831 17-06-2015 21:10:00 17.3 C 67 % 11.12 C
832 17-06-2015 21:15:00 17.2 C 68 % 11.25 C
833 17-06-2015 21:20:00 17.1 C 68 % 11.15 C
834 17-06-2015 21:25:00 17.1 C 68 % 11.15 C
835 17-06-2015 21:30:00 16.9 C 69 % 11.18 C
836 17-06-2015 21:35:00 16.8 C 68 % 10.87 C
837 17-06-2015 21:40:00 16.8 C 69 % 11.09 C
838 17-06-2015 21:45:00 16.8 C 69 % 11.09 C
839 17-06-2015 21:50:00 16.7 C 70 % 11.21 C
840 17-06-2015 21:55:00 16.7 C 69 % 10.99 C
841 17-06-2015 22:00:00 16.7 C 69 % 10.99 C
842 17-06-2015 22:05:00 16.6 C 70 % 11.11 C
843 17-06-2015 22:10:00 16.6 C 71 % 11.32 C
844 17-06-2015 22:15:00 16.5 C 69 % 10.8 C
845 17-06-2015 22:20:00 16.5 C 70 % 11.01 C
846 17-06-2015 22:25:00 16.5 C 71 % 11.23 C
847 17-06-2015 22:30:00 16.4 C 70 % 10.92 C
848 17-06-2015 22:35:00 16.4 C 71 % 11.13 C
849 17-06-2015 22:40:00 16.4 C 70 % 10.92 C
850 17-06-2015 22:45:00 16.4 C 72 % 11.34 C
Sensor: Nr:Datum:Temp:Feuchte:Taupunkt:
Aussen-T/F 851 17-06-2015 22:50:00 16.3 C 72 % 11.25 C
852 17-06-2015 22:55:00 16.2 C 71 % 10.94 C
853 17-06-2015 23:00:00 16.2 C 72 % 11.15 C
854 17-06-2015 23:05:00 16.2 C 72 % 11.15 C
855 17-06-2015 23:10:00 16.2 C 72 % 11.15 C
856 17-06-2015 23:15:00 16.2 C 70 % 10.73 C
857 17-06-2015 23:20:00 16.3 C 69 % 10.61 C
858 17-06-2015 23:25:00 16.2 C 69 % 10.51 C
859 17-06-2015 23:30:00 16.2 C 70 % 10.73 C
860 17-06-2015 23:35:00 16.2 C 69 % 10.51 C
861 17-06-2015 23:40:00 16.3 C 70 % 10.82 C
862 17-06-2015 23:45:00 16.4 C 69 % 10.7 C
863 17-06-2015 23:50:00 16.5 C 69 % 10.8 C
864 17-06-2015 23:55:00 16.6 C 69 % 10.89 C
865 18-06-2015 00:00:00 16.6 C 69 % 10.89 C
866 18-06-2015 00:05:00 16.6 C 69 % 10.89 C
867 18-06-2015 00:10:00 16.7 C 69 % 10.99 C
868 18-06-2015 00:15:00 16.7 C 69 % 10.99 C
869 18-06-2015 00:20:00 16.6 C 70 % 11.11 C
870 18-06-2015 00:25:00 16.6 C 70 % 11.11 C
871 18-06-2015 00:30:00 16.6 C 69 % 10.89 C
872 18-06-2015 00:35:00 16.6 C 70 % 11.11 C
873 18-06-2015 00:40:00 16.4 C 71 % 11.13 C
874 18-06-2015 00:45:00 16.3 C 71 % 11.04 C
875 18-06-2015 00:50:00 16.3 C 71 % 11.04 C
Sensor: Nr:Datum:Temp:Feuchte:Taupunkt:
Aussen-T/F 876 18-06-2015 00:55:00 16.2 C 72 % 11.15 C
877 18-06-2015 01:00:00 16.2 C 72 % 11.15 C
878 18-06-2015 01:05:00 16.2 C 72 % 11.15 C
879 18-06-2015 01:10:00 16.2 C 72 % 11.15 C
880 18-06-2015 01:15:00 16.1 C 72 % 11.06 C
881 18-06-2015 01:20:00 16.1 C 73 % 11.26 C
882 18-06-2015 01:25:00 16.2 C 73 % 11.36 C
883 18-06-2015 01:30:00 16.2 C 74 % 11.56 C
884 18-06-2015 01:35:00 16.2 C 74 % 11.56 C
885 18-06-2015 01:40:00 16.2 C 73 % 11.36 C
886 18-06-2015 01:45:00 16.2 C 72 % 11.15 C
887 18-06-2015 01:50:00 16.3 C 72 % 11.25 C
888 18-06-2015 01:55:00 16.4 C 73 % 11.55 C
889 18-06-2015 02:00:00 16.4 C 71 % 11.13 C
890 18-06-2015 02:05:00 16.5 C 71 % 11.23 C
891 18-06-2015 02:10:00 16.6 C 71 % 11.32 C
892 18-06-2015 02:15:00 16.7 C 71 % 11.42 C
893 18-06-2015 02:20:00 16.6 C 71 % 11.32 C
894 18-06-2015 02:25:00 16.6 C 73 % 11.74 C
895 18-06-2015 02:30:00 16.6 C 74 % 11.95 C
896 18-06-2015 02:35:00 16.5 C 73 % 11.65 C
897 18-06-2015 02:40:00 16.4 C 74 % 11.76 C
898 18-06-2015 02:45:00 16.4 C 75 % 11.96 C
899 18-06-2015 02:50:00 16.3 C 74 % 11.66 C
900 18-06-2015 02:55:00 16.3 C 76 % 12.07 C
Sensor: Nr:Datum:Temp:Feuchte:Taupunkt:
Aussen-T/F 901 18-06-2015 03:00:00 16.3 C 76 % 12.07 C
902 18-06-2015 03:05:00 16.2 C 77 % 12.17 C
903 18-06-2015 03:10:00 16.2 C 77 % 12.17 C
904 18-06-2015 03:15:00 16.1 C 78 % 12.27 C
905 18-06-2015 03:20:00 16.1 C 79 % 12.46 C
906 18-06-2015 03:25:00 16.1 C 80 % 12.65 C
907 18-06-2015 03:30:00 16.1 C 81 % 12.84 C
908 18-06-2015 03:35:00 16.1 C 80 % 12.65 C
909 18-06-2015 03:40:00 16.2 C 80 % 12.75 C
910 18-06-2015 03:45:00 16.3 C 79 % 12.65 C
911 18-06-2015 03:50:00 16.4 C 79 % 12.75 C
912 18-06-2015 03:55:00 16.6 C 78 % 12.75 C
913 18-06-2015 04:00:00 16.7 C 77 % 12.65 C
914 18-06-2015 04:05:00 16.9 C 76 % 12.65 C
915 18-06-2015 04:10:00 17.1 C 75 % 12.64 C
916 18-06-2015 04:15:00 17.3 C 74 % 12.62 C
917 18-06-2015 04:20:00 17.3 C 74 % 12.62 C
918 18-06-2015 04:25:00 17.4 C 74 % 12.72 C
919 18-06-2015 04:30:00 17.3 C 75 % 12.83 C
920 18-06-2015 04:35:00 17.3 C 75 % 12.83 C
921 18-06-2015 04:40:00 17.3 C 76 % 13.03 C
922 18-06-2015 04:45:00 17.3 C 75 % 12.83 C
923 18-06-2015 04:50:00 17.2 C 76 % 12.94 C
924 18-06-2015 04:55:00 17.3 C 78 % 13.43 C
925 18-06-2015 05:00:00 17.2 C 79 % 13.53 C
Sensor: Nr:Datum:Temp:Feuchte:Taupunkt:
Aussen-T/F 926 18-06-2015 05:05:00 16.9 C 81 % 13.62 C
927 18-06-2015 05:10:00 16.7 C 83 % 13.8 C
928 18-06-2015 05:15:00 16.4 C 85 % 13.87 C
929 18-06-2015 05:20:00 16.2 C 88 % 14.21 C
930 18-06-2015 05:25:00 15.9 C 89 % 14.09 C
931 18-06-2015 05:30:00 15.7 C 90 % 14.06 C
932 18-06-2015 05:35:00 15.6 C 91 % 14.14 C
933 18-06-2015 05:40:00 15.5 C 92 % 14.21 C
934 18-06-2015 05:45:00 15.4 C 92 % 14.11 C
935 18-06-2015 05:50:00 15.4 C 92 % 14.11 C
936 18-06-2015 05:55:00 15.3 C 93 % 14.18 C
937 18-06-2015 06:00:00 15.3 C 93 % 14.18 C
938 18-06-2015 06:05:00 15.3 C 93 % 14.18 C
939 18-06-2015 06:10:00 15.2 C 93 % 14.08 C
940 18-06-2015 06:15:00 15.2 C 93 % 14.08 C
941 18-06-2015 06:20:00 15.2 C 94 % 14.24 C
942 18-06-2015 06:25:00 15.2 C 94 % 14.24 C
943 18-06-2015 06:30:00 15.2 C 94 % 14.24 C
944 18-06-2015 06:35:00 15.2 C 94 % 14.24 C
945 18-06-2015 06:40:00 15.3 C 94 % 14.34 C
946 18-06-2015 06:45:00 15.3 C 94 % 14.34 C
947 18-06-2015 06:50:00 15.3 C 94 % 14.34 C
948 18-06-2015 06:55:00 15.4 C 94 % 14.44 C
949 18-06-2015 07:00:00 15.5 C 94 % 14.54 C
950 18-06-2015 07:05:00 15.5 C 94 % 14.54 C
Sensor: Nr:Datum:Temp:Feuchte:Taupunkt:
Aussen-T/F 951 18-06-2015 07:10:00 15.6 C 94 % 14.64 C
952 18-06-2015 07:15:00 15.6 C 94 % 14.64 C
953 18-06-2015 07:20:00 15.6 C 94 % 14.64 C
954 18-06-2015 07:25:00 15.6 C 95 % 14.8 C
955 18-06-2015 07:30:00 15.6 C 94 % 14.64 C
956 18-06-2015 07:35:00 15.6 C 94 % 14.64 C
957 18-06-2015 07:40:00 15.6 C 94 % 14.64 C
958 18-06-2015 07:45:00 15.6 C 94 % 14.64 C
959 18-06-2015 07:50:00 15.6 C 94 % 14.64 C
960 18-06-2015 07:55:00 15.6 C 95 % 14.8 C
961 18-06-2015 08:00:00 15.6 C 95 % 14.8 C
962 18-06-2015 08:05:00 15.7 C 95 % 14.9 C
963 18-06-2015 08:10:00 15.7 C 95 % 14.9 C
964 18-06-2015 08:15:00 15.7 C 95 % 14.9 C
965 18-06-2015 08:20:00 15.7 C 95 % 14.9 C
966 18-06-2015 08:25:00 15.7 C 95 % 14.9 C
967 18-06-2015 08:30:00 15.8 C 95 % 15 C
968 18-06-2015 08:35:00 15.8 C 95 % 15 C
969 18-06-2015 08:40:00 15.9 C 95 % 15.1 C
970 18-06-2015 08:45:00 15.9 C 95 % 15.1 C
971 18-06-2015 08:50:00 15.9 C 95 % 15.1 C
972 18-06-2015 08:55:00 16 C 95 % 15.2 C
973 18-06-2015 09:00:00 16.1 C 95 % 15.3 C
974 18-06-2015 09:05:00 16.2 C 95 % 15.4 C
975 18-06-2015 09:10:00 16.2 C 95 % 15.4 C
Sensor: Nr:Datum:Temp:Feuchte:Taupunkt:
Aussen-T/F 976 18-06-2015 09:15:00 16.3 C 95 % 15.5 C
977 18-06-2015 09:20:00 16.4 C 95 % 15.6 C
978 18-06-2015 09:25:00 16.3 C 95 % 15.5 C
979 18-06-2015 09:30:00 16.3 C 95 % 15.5 C
980 18-06-2015 09:35:00 16.3 C 95 % 15.5 C
981 18-06-2015 09:40:00 16.3 C 95 % 15.5 C
982 18-06-2015 09:45:00 16.3 C 94 % 15.33 C
983 18-06-2015 09:50:00 16.3 C 94 % 15.33 C
984 18-06-2015 09:55:00 16.2 C 93 % 15.07 C
985 18-06-2015 10:00:00 16.3 C 93 % 15.17 C
986 18-06-2015 10:05:00 16.3 C 93 % 15.17 C
987 18-06-2015 10:10:00 16.3 C 93 % 15.17 C
988 18-06-2015 10:15:00 16.3 C 91 % 14.83 C
989 18-06-2015 10:20:00 16.3 C 92 % 15 C
990 18-06-2015 10:25:00 16.3 C 92 % 15 C
991 18-06-2015 10:30:00 16.2 C 91 % 14.73 C
992 18-06-2015 10:35:00 16.2 C 92 % 14.9 C
993 18-06-2015 10:40:00 16.2 C 91 % 14.73 C
994 18-06-2015 10:45:00 16.2 C 92 % 14.9 C
995 18-06-2015 10:50:00 16.2 C 92 % 14.9 C
996 18-06-2015 10:55:00 16.1 C 92 % 14.8 C
997 18-06-2015 11:00:00 15.9 C 92 % 14.6 C
998 18-06-2015 11:05:00 15.7 C 91 % 14.24 C
999 18-06-2015 11:10:00 15.6 C 91 % 14.14 C
1000 18-06-2015 11:15:00 15.5 C 91 % 14.04 C
Sensor: Nr:Datum:Temp:Feuchte:Taupunkt:
Aussen-T/F 1001 18-06-2015 11:20:00 15.6 C 92 % 14.31 C
1002 18-06-2015 11:25:00 15.6 C 93 % 14.47 C
1003 18-06-2015 11:30:00 15.7 C 93 % 14.57 C
1004 18-06-2015 11:35:00 15.7 C 93 % 14.57 C
1005 18-06-2015 11:40:00 15.7 C 92 % 14.4 C
1006 18-06-2015 11:45:00 15.8 C 93 % 14.67 C
1007 18-06-2015 11:50:00 16.1 C 94 % 15.13 C
1008 18-06-2015 11:55:00 16.3 C 94 % 15.33 C
1009 18-06-2015 12:00:00 16.4 C 93 % 15.27 C
1010 18-06-2015 12:05:00 16.4 C 92 % 15.1 C
1011 18-06-2015 12:10:00 16.6 C 92 % 15.3 C
1012 18-06-2015 12:15:00 16.8 C 92 % 15.49 C
1013 18-06-2015 12:20:00 16.8 C 92 % 15.49 C
1014 18-06-2015 12:25:00 16.8 C 92 % 15.49 C
1015 18-06-2015 12:30:00 16.7 C 92 % 15.39 C
1016 18-06-2015 12:35:00 16.7 C 92 % 15.39 C
1017 18-06-2015 12:40:00 16.6 C 92 % 15.3 C
1018 18-06-2015 12:45:00 16.5 C 90 % 14.85 C
1019 18-06-2015 12:50:00 16.7 C 91 % 15.22 C
1020 18-06-2015 12:55:00 16.9 C 89 % 15.08 C
1021 18-06-2015 13:00:00 17.2 C 89 % 15.37 C
1022 18-06-2015 13:05:00 17.5 C 87 % 15.31 C
1023 18-06-2015 13:10:00 17.8 C 83 % 14.88 C
1024 18-06-2015 13:15:00 18.1 C 79 % 14.4 C
1025 18-06-2015 13:20:00 18.2 C 79 % 14.5 C
Sensor: Nr:Datum:Temp:Feuchte:Taupunkt:
Aussen-T/F 1026 18-06-2015 13:25:00 18.2 C 77 % 14.1 C
1027 18-06-2015 13:30:00 18.3 C 77 % 14.2 C
1028 18-06-2015 13:35:00 18.6 C 77 % 14.49 C
1029 18-06-2015 13:40:00 19.1 C 76 % 14.77 C
1030 18-06-2015 13:45:00 19.4 C 71 % 14.01 C
1031 18-06-2015 13:50:00 19.6 C 70 % 13.98 C
1032 18-06-2015 13:55:00 19.6 C 69 % 13.76 C
1033 18-06-2015 14:00:00 19.6 C 69 % 13.76 C
1034 18-06-2015 14:05:00 19.9 C 67 % 13.59 C
1035 18-06-2015 14:10:00 19.9 C 65 % 13.13 C
1036 18-06-2015 14:15:00 20.1 C 68 % 14.01 C
1037 18-06-2015 14:20:00 20.3 C 64 % 13.27 C
1038 18-06-2015 14:25:00 20.2 C 63 % 12.94 C
1039 18-06-2015 14:30:00 20.2 C 65 % 13.41 C
1040 18-06-2015 14:35:00 20.2 C 63 % 12.94 C
1041 18-06-2015 14:40:00 20.3 C 66 % 13.74 C
1042 18-06-2015 14:45:00 20.3 C 63 % 13.03 C
1043 18-06-2015 14:50:00 20.4 C 66 % 13.84 C
1044 18-06-2015 14:55:00 20.5 C 62 % 12.97 C
1045 18-06-2015 15:00:00 20.2 C 65 % 13.41 C
1046 18-06-2015 15:05:00 20.2 C 67 % 13.88 C
1047 18-06-2015 15:10:00 20.6 C 62 % 13.07 C
1048 18-06-2015 15:15:00 20.8 C 63 % 13.5 C
1049 18-06-2015 15:20:00 20.9 C 66 % 14.31 C
1050 18-06-2015 15:25:00 21.1 C 63 % 13.79 C
Sensor: Nr:Datum:Temp:Feuchte:Taupunkt:
Aussen-T/F 1051 18-06-2015 15:30:00 21.1 C 60 % 13.04 C
1052 18-06-2015 15:35:00 21.2 C 63 % 13.88 C
1053 18-06-2015 15:40:00 21.7 C 60 % 13.6 C
1054 18-06-2015 15:45:00 22.1 C 63 % 14.73 C
1055 18-06-2015 15:50:00 22.1 C 58 % 13.45 C
1056 18-06-2015 15:55:00 21.7 C 58 % 13.08 C
1057 18-06-2015 16:00:00 21.5 C 63 % 14.16 C
1058 18-06-2015 16:05:00 21.3 C 62 % 13.73 C
1059 18-06-2015 16:10:00 21.4 C 61 % 13.57 C
1060 18-06-2015 16:15:00 21.3 C 62 % 13.73 C
1061 18-06-2015 16:20:00 21.2 C 61 % 13.38 C
1062 18-06-2015 16:25:00 20.8 C 58 % 12.24 C
1063 18-06-2015 16:30:00 20.6 C 58 % 12.05 C
1064 18-06-2015 16:35:00 20.4 C 59 % 12.12 C
1065 18-06-2015 16:40:00 20.3 C 59 % 12.03 C
1066 18-06-2015 16:45:00 20.7 C 58 % 12.15 C
1067 18-06-2015 16:50:00 21.1 C 56 % 11.99 C
1068 18-06-2015 16:55:00 21 C 55 % 11.62 C
1069 18-06-2015 17:00:00 21.1 C 57 % 12.25 C
1070 18-06-2015 17:05:00 21.4 C 54 % 11.71 C
1071 18-06-2015 17:10:00 21.3 C 53 % 11.34 C
1072 18-06-2015 17:15:00 21.3 C 54 % 11.62 C
1073 18-06-2015 17:20:00 21.1 C 55 % 11.71 C
1074 18-06-2015 17:25:00 20.8 C 56 % 11.71 C
1075 18-06-2015 17:30:00 20.9 C 56 % 11.8 C
Sensor: Nr:Datum:Temp:Feuchte:Taupunkt:
Aussen-T/F 1076 18-06-2015 17:35:00 21.1 C 55 % 11.71 C
1077 18-06-2015 17:40:00 21.1 C 54 % 11.44 C
1078 18-06-2015 17:45:00 20.9 C 54 % 11.25 C
1079 18-06-2015 17:50:00 21 C 54 % 11.34 C
1080 18-06-2015 17:55:00 20.7 C 53 % 10.78 C
1081 18-06-2015 18:00:00 20.6 C 54 % 10.97 C
1082 18-06-2015 18:05:00 20.8 C 55 % 11.43 C
1083 18-06-2015 18:10:00 20.9 C 52 % 10.68 C
1084 18-06-2015 18:15:00 20.6 C 53 % 10.69 C
1085 18-06-2015 18:20:00 20.6 C 55 % 11.25 C
1086 18-06-2015 18:25:00 20.6 C 55 % 11.25 C
1087 18-06-2015 18:30:00 20.7 C 54 % 11.07 C
1088 18-06-2015 18:35:00 20.7 C 52 % 10.5 C
1089 18-06-2015 18:40:00 20.4 C 55 % 11.06 C
1090 18-06-2015 18:45:00 20.3 C 53 % 10.41 C
1091 18-06-2015 18:50:00 19.9 C 54 % 10.32 C
1092 18-06-2015 18:55:00 19.7 C 56 % 10.68 C
1093 18-06-2015 19:00:00 19.4 C 55 % 10.13 C
1094 18-06-2015 19:05:00 19.3 C 56 % 10.31 C
1095 18-06-2015 19:10:00 19.2 C 58 % 10.74 C
1096 18-06-2015 19:15:00 19.1 C 57 % 10.39 C
1097 18-06-2015 19:20:00 18.9 C 56 % 9.94 C
1098 18-06-2015 19:25:00 18.8 C 57 % 10.11 C
1099 18-06-2015 19:30:00 18.7 C 58 % 10.28 C
1100 18-06-2015 19:35:00 18.6 C 59 % 10.44 C
Sensor: Nr:Datum:Temp:Feuchte:Taupunkt:
Aussen-T/F 1101 18-06-2015 19:40:00 18.4 C 59 % 10.25 C
1102 18-06-2015 19:45:00 18.3 C 59 % 10.16 C
1103 18-06-2015 19:50:00 18.2 C 59 % 10.06 C
1104 18-06-2015 19:55:00 18.1 C 59 % 9.97 C
1105 18-06-2015 20:00:00 17.9 C 59 % 9.78 C
1106 18-06-2015 20:05:00 17.8 C 59 % 9.69 C
1107 18-06-2015 20:10:00 17.7 C 59 % 9.59 C
1108 18-06-2015 20:15:00 17.7 C 60 % 9.84 C
1109 18-06-2015 20:20:00 17.4 C 60 % 9.56 C
1110 18-06-2015 20:25:00 17.3 C 61 % 9.71 C
1111 18-06-2015 20:30:00 17.1 C 61 % 9.53 C
1112 18-06-2015 20:35:00 16.9 C 62 % 9.58 C
1113 18-06-2015 20:40:00 16.8 C 61 % 9.24 C
1114 18-06-2015 20:45:00 16.7 C 61 % 9.15 C
1115 18-06-2015 20:50:00 16.5 C 61 % 8.96 C
1116 18-06-2015 20:55:00 16.4 C 62 % 9.11 C
1117 18-06-2015 21:00:00 16.3 C 62 % 9.01 C
1118 18-06-2015 21:05:00 16.2 C 62 % 8.92 C
1119 18-06-2015 21:10:00 16.1 C 62 % 8.82 C
1120 18-06-2015 21:15:00 15.9 C 62 % 8.64 C
1121 18-06-2015 21:20:00 15.8 C 62 % 8.54 C
1122 18-06-2015 21:25:00 15.7 C 63 % 8.68 C
1123 18-06-2015 21:30:00 15.7 C 63 % 8.68 C
1124 18-06-2015 21:35:00 15.5 C 63 % 8.49 C
1125 18-06-2015 21:40:00 15.4 C 63 % 8.4 C
Sensor: Nr:Datum:Temp:Feuchte:Taupunkt:
Aussen-T/F 1126 18-06-2015 21:45:00 15.3 C 63 % 8.31 C
1127 18-06-2015 21:50:00 15.2 C 63 % 8.21 C
1128 18-06-2015 21:55:00 15.1 C 64 % 8.35 C
1129 18-06-2015 22:00:00 15 C 64 % 8.25 C
1130 18-06-2015 22:05:00 14.9 C 65 % 8.39 C
1131 18-06-2015 22:10:00 14.8 C 65 % 8.29 C
1132 18-06-2015 22:15:00 14.7 C 65 % 8.2 C
1133 18-06-2015 22:20:00 14.6 C 65 % 8.1 C
1134 18-06-2015 22:25:00 14.6 C 66 % 8.33 C
1135 18-06-2015 22:30:00 14.4 C 66 % 8.14 C
1136 18-06-2015 22:35:00 14.3 C 67 % 8.26 C
1137 18-06-2015 22:40:00 14.2 C 68 % 8.39 C
1138 18-06-2015 22:45:00 14.1 C 68 % 8.29 C
1139 18-06-2015 22:50:00 13.9 C 69 % 8.31 C
1140 18-06-2015 22:55:00 13.8 C 70 % 8.43 C
1141 18-06-2015 23:00:00 13.7 C 72 % 8.75 C
1142 18-06-2015 23:05:00 13.5 C 73 % 8.76 C
1143 18-06-2015 23:10:00 13.4 C 71 % 8.26 C
1144 18-06-2015 23:15:00 13.3 C 72 % 8.36 C
1145 18-06-2015 23:20:00 13.3 C 73 % 8.57 C
1146 18-06-2015 23:25:00 13.3 C 73 % 8.57 C
1147 18-06-2015 23:30:00 13.2 C 72 % 8.27 C
1148 18-06-2015 23:35:00 13.1 C 74 % 8.58 C
1149 18-06-2015 23:40:00 12.9 C 73 % 8.18 C
1150 18-06-2015 23:45:00 12.9 C 73 % 8.18 C
Sensor: Nr:Datum:Temp:Feuchte:Taupunkt:
Aussen-T/F 1151 18-06-2015 23:50:00 12.9 C 73 % 8.18 C
1152 18-06-2015 23:55:00 12.9 C 73 % 8.18 C
1153 19-06-2015 00:00:00 12.8 C 73 % 8.09 C
1154 19-06-2015 00:05:00 12.8 C 73 % 8.09 C
1155 19-06-2015 00:10:00 12.8 C 74 % 8.29 C
1156 19-06-2015 00:15:00 12.7 C 74 % 8.19 C
1157 19-06-2015 00:20:00 12.6 C 73 % 7.89 C
1158 19-06-2015 00:25:00 12.5 C 74 % 8 C
1159 19-06-2015 00:30:00 12.4 C 74 % 7.9 C
1160 19-06-2015 00:35:00 12.4 C 74 % 7.9 C
1161 19-06-2015 00:40:00 12.4 C 74 % 7.9 C
1162 19-06-2015 00:45:00 12.3 C 76 % 8.2 C
1163 19-06-2015 00:50:00 12.1 C 77 % 8.2 C
1164 19-06-2015 00:55:00 11.8 C 78 % 8.09 C
1165 19-06-2015 01:00:00 11.6 C 79 % 8.09 C
1166 19-06-2015 01:05:00 11.4 C 79 % 7.89 C
1167 19-06-2015 01:10:00 11.4 C 80 % 8.08 C
1168 19-06-2015 01:15:00 11.3 C 80 % 7.98 C
1169 19-06-2015 01:20:00 11.3 C 79 % 7.8 C
1170 19-06-2015 01:25:00 11.3 C 80 % 7.98 C
1171 19-06-2015 01:30:00 11.3 C 79 % 7.8 C
1172 19-06-2015 01:35:00 11.3 C 80 % 7.98 C
1173 19-06-2015 01:40:00 11.2 C 80 % 7.88 C
1174 19-06-2015 01:45:00 11.1 C 81 % 7.97 C
1175 19-06-2015 01:50:00 10.9 C 82 % 7.95 C
Sensor: Nr:Datum:Temp:Feuchte:Taupunkt:
Aussen-T/F 1176 19-06-2015 01:55:00 10.9 C 83 % 8.13 C
1177 19-06-2015 02:00:00 10.8 C 84 % 8.21 C
1178 19-06-2015 02:05:00 10.8 C 83 % 8.03 C
1179 19-06-2015 02:10:00 10.7 C 84 % 8.11 C
1180 19-06-2015 02:15:00 10.7 C 84 % 8.11 C
1181 19-06-2015 02:20:00 10.7 C 84 % 8.11 C
1182 19-06-2015 02:25:00 10.7 C 84 % 8.11 C
1183 19-06-2015 02:30:00 10.6 C 85 % 8.19 C
1184 19-06-2015 02:35:00 10.6 C 85 % 8.19 C
1185 19-06-2015 02:40:00 10.4 C 84 % 7.82 C
1186 19-06-2015 02:45:00 10.4 C 85 % 7.99 C
1187 19-06-2015 02:50:00 10.4 C 84 % 7.82 C
1188 19-06-2015 02:55:00 10.6 C 84 % 8.01 C
1189 19-06-2015 03:00:00 10.7 C 83 % 7.93 C
1190 19-06-2015 03:05:00 10.7 C 83 % 7.93 C
1191 19-06-2015 03:10:00 10.7 C 83 % 7.93 C
1192 19-06-2015 03:15:00 10.5 C 83 % 7.74 C
1193 19-06-2015 03:20:00 10.4 C 84 % 7.82 C
1194 19-06-2015 03:25:00 10.3 C 84 % 7.72 C
1195 19-06-2015 03:30:00 10.3 C 85 % 7.89 C
1196 19-06-2015 03:35:00 10.2 C 85 % 7.79 C
1197 19-06-2015 03:40:00 10.2 C 85 % 7.79 C
1198 19-06-2015 03:45:00 10.1 C 85 % 7.7 C
1199 19-06-2015 03:50:00 10.2 C 85 % 7.79 C
1200 19-06-2015 03:55:00 10.2 C 85 % 7.79 C
Sensor: Nr:Datum:Temp:Feuchte:Taupunkt:
Aussen-T/F 1201 19-06-2015 04:00:00 10.2 C 85 % 7.79 C
1202 19-06-2015 04:05:00 10.1 C 85 % 7.7 C
1203 19-06-2015 04:10:00 10.1 C 85 % 7.7 C
1204 19-06-2015 04:15:00 10 C 85 % 7.6 C
1205 19-06-2015 04:20:00 10 C 86 % 7.77 C
1206 19-06-2015 04:25:00 9.9 C 86 % 7.67 C
1207 19-06-2015 04:30:00 9.9 C 85 % 7.5 C
1208 19-06-2015 04:35:00 9.9 C 86 % 7.67 C
1209 19-06-2015 04:40:00 9.9 C 85 % 7.5 C
1210 19-06-2015 04:45:00 9.9 C 85 % 7.5 C
1211 19-06-2015 04:50:00 10.1 C 85 % 7.7 C
1212 19-06-2015 04:55:00 10.3 C 84 % 7.72 C
1213 19-06-2015 05:00:00 10.3 C 85 % 7.89 C
1214 19-06-2015 05:05:00 10.4 C 85 % 7.99 C
1215 19-06-2015 05:10:00 10.4 C 84 % 7.82 C
1216 19-06-2015 05:15:00 10.5 C 82 % 7.56 C
1217 19-06-2015 05:20:00 10.6 C 82 % 7.66 C
1218 19-06-2015 05:25:00 10.7 C 81 % 7.58 C
1219 19-06-2015 05:30:00 10.8 C 82 % 7.85 C
1220 19-06-2015 05:35:00 10.8 C 82 % 7.85 C
1221 19-06-2015 05:40:00 10.8 C 82 % 7.85 C
1222 19-06-2015 05:45:00 10.8 C 81 % 7.67 C
1223 19-06-2015 05:50:00 10.9 C 82 % 7.95 C
1224 19-06-2015 05:55:00 10.9 C 82 % 7.95 C
1225 19-06-2015 06:00:00 10.9 C 82 % 7.95 C
Sensor: Nr:Datum:Temp:Feuchte:Taupunkt:
Aussen-T/F 1226 19-06-2015 06:05:00 10.9 C 80 % 7.59 C
1227 19-06-2015 06:10:00 11 C 81 % 7.87 C
1228 19-06-2015 06:15:00 11.1 C 80 % 7.79 C
1229 19-06-2015 06:20:00 11.2 C 81 % 8.06 C
1230 19-06-2015 06:25:00 11.2 C 79 % 7.7 C
1231 19-06-2015 06:30:00 11.2 C 80 % 7.88 C
1232 19-06-2015 06:35:00 11.3 C 80 % 7.98 C
1233 19-06-2015 06:40:00 11.3 C 80 % 7.98 C
1234 19-06-2015 06:45:00 11.3 C 80 % 7.98 C
1235 19-06-2015 06:50:00 11.3 C 80 % 7.98 C
1236 19-06-2015 06:55:00 11.3 C 80 % 7.98 C
1237 19-06-2015 07:00:00 11.3 C 80 % 7.98 C
1238 19-06-2015 07:05:00 11.4 C 80 % 8.08 C
1239 19-06-2015 07:10:00 11.4 C 80 % 8.08 C
1240 19-06-2015 07:15:00 11.5 C 80 % 8.17 C
1241 19-06-2015 07:20:00 11.5 C 80 % 8.17 C
1242 19-06-2015 07:25:00 11.6 C 80 % 8.27 C
1243 19-06-2015 07:30:00 11.6 C 80 % 8.27 C
1244 19-06-2015 07:35:00 11.6 C 79 % 8.09 C
1245 19-06-2015 07:40:00 11.6 C 79 % 8.09 C
1246 19-06-2015 07:45:00 11.7 C 79 % 8.18 C
1247 19-06-2015 07:50:00 11.7 C 79 % 8.18 C
1248 19-06-2015 07:55:00 11.8 C 79 % 8.28 C
1249 19-06-2015 08:00:00 11.9 C 80 % 8.56 C
1250 19-06-2015 08:05:00 11.9 C 79 % 8.38 C
Sensor: Nr:Datum:Temp:Feuchte:Taupunkt:
Aussen-T/F 1251 19-06-2015 08:10:00 12 C 79 % 8.48 C
1252 19-06-2015 08:15:00 12.1 C 79 % 8.57 C
1253 19-06-2015 08:20:00 12.1 C 79 % 8.57 C
1254 19-06-2015 08:25:00 12.2 C 79 % 8.67 C
1255 19-06-2015 08:30:00 12.2 C 79 % 8.67 C
1256 19-06-2015 08:35:00 12.3 C 79 % 8.77 C
1257 19-06-2015 08:40:00 12.4 C 79 % 8.86 C
1258 19-06-2015 08:45:00 12.4 C 78 % 8.68 C
1259 19-06-2015 08:50:00 12.5 C 77 % 8.58 C
1260 19-06-2015 08:55:00 12.6 C 78 % 8.87 C
1261 19-06-2015 09:00:00 12.6 C 77 % 8.68 C
1262 19-06-2015 09:05:00 12.6 C 78 % 8.87 C
1263 19-06-2015 09:10:00 12.7 C 78 % 8.97 C
1264 19-06-2015 09:15:00 12.7 C 77 % 8.78 C
1265 19-06-2015 09:20:00 12.7 C 77 % 8.78 C
1266 19-06-2015 09:25:00 12.8 C 76 % 8.68 C
1267 19-06-2015 09:30:00 12.9 C 76 % 8.78 C
1268 19-06-2015 09:35:00 13.1 C 75 % 8.77 C
1269 19-06-2015 09:40:00 13.2 C 74 % 8.67 C
1270 19-06-2015 09:45:00 13.3 C 73 % 8.57 C
1271 19-06-2015 09:50:00 13.4 C 73 % 8.66 C
1272 19-06-2015 09:55:00 13.4 C 74 % 8.87 C
1273 19-06-2015 10:00:00 13.6 C 74 % 9.06 C
1274 19-06-2015 10:05:00 13.7 C 73 % 8.95 C
1275 19-06-2015 10:10:00 13.8 C 73 % 9.05 C
Sensor: Nr:Datum:Temp:Feuchte:Taupunkt:
Aussen-T/F 1276 19-06-2015 10:15:00 13.8 C 73 % 9.05 C
1277 19-06-2015 10:20:00 14.2 C 73 % 9.43 C
1278 19-06-2015 10:25:00 14.4 C 71 % 9.21 C
1279 19-06-2015 10:30:00 14.6 C 71 % 9.41 C
1280 19-06-2015 10:35:00 14.8 C 70 % 9.39 C
1281 19-06-2015 10:40:00 15 C 71 % 9.79 C
1282 19-06-2015 10:45:00 14.9 C 70 % 9.48 C
1283 19-06-2015 10:50:00 14.8 C 71 % 9.6 C
1284 19-06-2015 10:55:00 14.8 C 71 % 9.6 C
1285 19-06-2015 11:00:00 14.9 C 71 % 9.69 C
1286 19-06-2015 11:05:00 14.9 C 71 % 9.69 C
1287 19-06-2015 11:10:00 14.9 C 71 % 9.69 C
1288 19-06-2015 11:15:00 15.1 C 71 % 9.89 C
1289 19-06-2015 11:20:00 15.1 C 71 % 9.89 C
1290 19-06-2015 11:25:00 15.1 C 71 % 9.89 C
1291 19-06-2015 11:30:00 15.1 C 71 % 9.89 C
1292 19-06-2015 11:35:00 15.1 C 70 % 9.67 C
1293 19-06-2015 11:40:00 15 C 72 % 10 C
1294 19-06-2015 11:45:00 14.8 C 72 % 9.81 C
1295 19-06-2015 11:50:00 14.6 C 72 % 9.61 C
1296 19-06-2015 11:55:00 14.5 C 75 % 10.13 C
1297 19-06-2015 12:00:00 14.3 C 80 % 10.9 C
1298 19-06-2015 12:05:00 14.2 C 82 % 11.17 C
1299 19-06-2015 12:10:00 14.2 C 83 % 11.36 C
1300 19-06-2015 12:15:00 14.2 C 82 % 11.17 C
Sensor: Nr:Datum:Temp:Feuchte:Taupunkt:
Aussen-T/F 1301 19-06-2015 12:20:00 14.2 C 83 % 11.36 C
1302 19-06-2015 12:25:00 14.2 C 83 % 11.36 C
1303 19-06-2015 12:30:00 14.1 C 83 % 11.26 C
1304 19-06-2015 12:35:00 14.1 C 86 % 11.8 C
1305 19-06-2015 12:40:00 14.4 C 87 % 12.27 C
1306 19-06-2015 12:45:00 14.8 C 88 % 12.83 C
1307 19-06-2015 12:50:00 15.2 C 83 % 12.33 C
1308 19-06-2015 12:55:00 15.4 C 85 % 12.89 C
1309 19-06-2015 13:00:00 15.4 C 80 % 11.97 C
1310 19-06-2015 13:05:00 15.3 C 79 % 11.68 C
1311 19-06-2015 13:10:00 15.2 C 78 % 11.39 C
1312 19-06-2015 13:15:00 15.2 C 80 % 11.78 C
1313 19-06-2015 13:20:00 15.2 C 80 % 11.78 C
1314 19-06-2015 13:25:00 15.2 C 82 % 12.15 C
1315 19-06-2015 13:30:00 15.4 C 82 % 12.35 C
1316 19-06-2015 13:35:00 15.4 C 77 % 11.39 C
1317 19-06-2015 13:40:00 15.7 C 80 % 12.26 C
1318 19-06-2015 13:45:00 15.9 C 76 % 11.68 C
1319 19-06-2015 13:50:00 16.1 C 77 % 12.07 C
1320 19-06-2015 13:55:00 16.2 C 74 % 11.56 C
1321 19-06-2015 14:00:00 16.2 C 72 % 11.15 C
1322 19-06-2015 14:05:00 16.1 C 75 % 11.67 C
1323 19-06-2015 14:10:00 15.8 C 74 % 11.18 C
1324 19-06-2015 14:15:00 15.6 C 79 % 11.97 C
1325 19-06-2015 14:20:00 15.2 C 81 % 11.96 C
Sensor: Nr:Datum:Temp:Feuchte:Taupunkt:
Aussen-T/F 1326 19-06-2015 14:25:00 14.8 C 85 % 12.3 C
1327 19-06-2015 14:30:00 14.6 C 86 % 12.29 C
1328 19-06-2015 14:35:00 14.4 C 87 % 12.27 C
1329 19-06-2015 14:40:00 14.4 C 87 % 12.27 C
1330 19-06-2015 14:45:00 14.5 C 86 % 12.19 C
1331 19-06-2015 14:50:00 14.4 C 87 % 12.27 C
1332 19-06-2015 14:55:00 14.3 C 87 % 12.17 C
1333 19-06-2015 15:00:00 14.1 C 87 % 11.97 C
1334 19-06-2015 15:05:00 13.9 C 87 % 11.77 C
1335 19-06-2015 15:10:00 13.9 C 86 % 11.6 C
1336 19-06-2015 15:15:00 14 C 86 % 11.7 C
1337 19-06-2015 15:20:00 14.2 C 87 % 12.07 C
1338 19-06-2015 15:25:00 14.2 C 87 % 12.07 C
1339 19-06-2015 15:30:00 14.1 C 89 % 12.32 C
1340 19-06-2015 15:35:00 13.9 C 89 % 12.12 C
1341 19-06-2015 15:40:00 13.7 C 89 % 11.92 C
1342 19-06-2015 15:45:00 13.7 C 90 % 12.09 C
1343 19-06-2015 15:50:00 13.6 C 90 % 11.99 C
1344 19-06-2015 15:55:00 13.5 C 90 % 11.89 C
1345 19-06-2015 16:00:00 13.6 C 91 % 12.16 C
1346 19-06-2015 16:05:00 13.8 C 90 % 12.19 C
1347 19-06-2015 16:10:00 14 C 87 % 11.87 C
1348 19-06-2015 16:15:00 14.6 C 89 % 12.81 C
1349 19-06-2015 16:20:00 15.3 C 86 % 12.97 C
1350 19-06-2015 16:25:00 15.6 C 84 % 12.91 C
Sensor: Nr:Datum:Temp:Feuchte:Taupunkt:
Aussen-T/F 1351 19-06-2015 16:30:00 15.6 C 82 % 12.54 C
1352 19-06-2015 16:35:00 15.8 C 83 % 12.92 C
1353 19-06-2015 16:40:00 15.8 C 80 % 12.36 C
1354 19-06-2015 16:45:00 15.7 C 83 % 12.82 C
1355 19-06-2015 16:50:00 15.4 C 82 % 12.35 C
1356 19-06-2015 16:55:00 15.1 C 84 % 12.42 C
1357 19-06-2015 17:00:00 14.8 C 86 % 12.48 C
1358 19-06-2015 17:05:00 14.5 C 85 % 12.01 C
1359 19-06-2015 17:10:00 14.1 C 82 % 11.08 C
1360 19-06-2015 17:15:00 13.8 C 84 % 11.15 C
1361 19-06-2015 17:20:00 13.6 C 85 % 11.13 C
1362 19-06-2015 17:25:00 13.6 C 86 % 11.3 C
1363 19-06-2015 17:30:00 13.6 C 88 % 11.65 C
1364 19-06-2015 17:35:00 13.4 C 88 % 11.45 C
1365 19-06-2015 17:40:00 13.3 C 89 % 11.53 C
1366 19-06-2015 17:45:00 13.2 C 89 % 11.43 C
1367 19-06-2015 17:50:00 13.3 C 91 % 11.86 C
1368 19-06-2015 17:55:00 13.6 C 92 % 12.33 C
1369 19-06-2015 18:00:00 13.8 C 91 % 12.36 C
1370 19-06-2015 18:05:00 14.2 C 91 % 12.75 C
1371 19-06-2015 18:10:00 14.6 C 89 % 12.81 C
1372 19-06-2015 18:15:00 14.8 C 85 % 12.3 C
1373 19-06-2015 18:20:00 15.1 C 80 % 11.68 C
1374 19-06-2015 18:25:00 15.3 C 76 % 11.1 C
1375 19-06-2015 18:30:00 15.5 C 75 % 11.09 C
Sensor: Nr:Datum:Temp:Feuchte:Taupunkt:
Aussen-T/F 1376 19-06-2015 18:35:00 15.5 C 75 % 11.09 C
1377 19-06-2015 18:40:00 15.4 C 76 % 11.19 C
1378 19-06-2015 18:45:00 14.9 C 77 % 10.91 C
1379 19-06-2015 18:50:00 14.5 C 78 % 10.71 C
1380 19-06-2015 18:55:00 14.2 C 79 % 10.61 C
1381 19-06-2015 19:00:00 14.1 C 81 % 10.89 C
1382 19-06-2015 19:05:00 13.9 C 80 % 10.51 C
1383 19-06-2015 19:10:00 13.8 C 80 % 10.41 C
1384 19-06-2015 19:15:00 13.7 C 81 % 10.5 C
1385 19-06-2015 19:20:00 13.7 C 81 % 10.5 C
1386 19-06-2015 19:25:00 13.6 C 82 % 10.59 C
1387 19-06-2015 19:30:00 13.5 C 85 % 11.03 C
1388 19-06-2015 19:35:00 13.4 C 87 % 11.28 C
1389 19-06-2015 19:40:00 13.2 C 88 % 11.26 C
1390 19-06-2015 19:45:00 13.1 C 88 % 11.16 C
1391 19-06-2015 19:50:00 13.1 C 90 % 11.5 C
1392 19-06-2015 19:55:00 13.1 C 90 % 11.5 C
1393 19-06-2015 20:00:00 13 C 90 % 11.4 C
1394 19-06-2015 20:05:00 12.9 C 91 % 11.47 C
1395 19-06-2015 20:10:00 12.8 C 90 % 11.2 C
1396 19-06-2015 20:15:00 12.8 C 91 % 11.37 C
1397 19-06-2015 20:20:00 12.7 C 91 % 11.27 C
1398 19-06-2015 20:25:00 12.7 C 91 % 11.27 C
1399 19-06-2015 20:30:00 12.6 C 87 % 10.5 C
1400 19-06-2015 20:35:00 12.7 C 85 % 10.25 C
Sensor: Nr:Datum:Temp:Feuchte:Taupunkt:
Aussen-T/F 1401 19-06-2015 20:40:00 12.7 C 85 % 10.25 C
1402 19-06-2015 20:45:00 12.8 C 87 % 10.69 C
1403 19-06-2015 20:50:00 12.7 C 88 % 10.77 C
1404 19-06-2015 20:55:00 12.5 C 89 % 10.74 C
1405 19-06-2015 21:00:00 12.4 C 89 % 10.64 C
1406 19-06-2015 21:05:00 12.3 C 90 % 10.71 C
1407 19-06-2015 21:10:00 12.2 C 90 % 10.61 C
1408 19-06-2015 21:15:00 12.2 C 91 % 10.78 C
1409 19-06-2015 21:20:00 12.1 C 90 % 10.51 C
1410 19-06-2015 21:25:00 12.1 C 87 % 10 C
1411 19-06-2015 21:30:00 12.3 C 86 % 10.03 C
1412 19-06-2015 21:35:00 12.4 C 86 % 10.13 C
1413 19-06-2015 21:40:00 12.5 C 86 % 10.22 C
1414 19-06-2015 21:45:00 12.5 C 86 % 10.22 C
1415 19-06-2015 21:50:00 12.4 C 86 % 10.13 C
1416 19-06-2015 21:55:00 12.3 C 86 % 10.03 C
1417 19-06-2015 22:00:00 12.2 C 87 % 10.1 C
1418 19-06-2015 22:05:00 12.1 C 88 % 10.17 C
1419 19-06-2015 22:10:00 12 C 90 % 10.41 C
1420 19-06-2015 22:15:00 11.8 C 91 % 10.38 C
1421 19-06-2015 22:20:00 11.7 C 91 % 10.28 C
1422 19-06-2015 22:25:00 11.6 C 92 % 10.35 C
1423 19-06-2015 22:30:00 11.5 C 92 % 10.25 C
1424 19-06-2015 22:35:00 11.4 C 92 % 10.15 C
1425 19-06-2015 22:40:00 11.3 C 93 % 10.21 C
Sensor: Nr:Datum:Temp:Feuchte:Taupunkt:
Aussen-T/F 1426 19-06-2015 22:45:00 11.3 C 93 % 10.21 C
1427 19-06-2015 22:50:00 11.3 C 93 % 10.21 C
1428 19-06-2015 22:55:00 11.2 C 93 % 10.11 C
1429 19-06-2015 23:00:00 11.1 C 93 % 10.01 C
1430 19-06-2015 23:05:00 11.1 C 94 % 10.17 C
1431 19-06-2015 23:10:00 11 C 94 % 10.07 C
1432 19-06-2015 23:15:00 10.9 C 94 % 9.97 C
1433 19-06-2015 23:20:00 10.9 C 94 % 9.97 C
1434 19-06-2015 23:25:00 10.9 C 94 % 9.97 C
1435 19-06-2015 23:30:00 10.9 C 94 % 9.97 C
1436 19-06-2015 23:35:00 10.9 C 94 % 9.97 C
1437 19-06-2015 23:40:00 10.9 C 94 % 9.97 C
1438 19-06-2015 23:45:00 10.9 C 94 % 9.97 C
1439 19-06-2015 23:50:00 10.8 C 94 % 9.87 C
1440 19-06-2015 23:55:00 10.8 C 95 % 10.03 C
1441 20-06-2015 00:00:00 10.8 C 95 % 10.03 C
1442 20-06-2015 00:05:00 10.8 C 95 % 10.03 C
1443 20-06-2015 00:10:00 10.8 C 95 % 10.03 C
1444 20-06-2015 00:15:00 10.8 C 95 % 10.03 C
1445 20-06-2015 00:20:00 10.8 C 95 % 10.03 C
1446 20-06-2015 00:25:00 10.8 C 95 % 10.03 C
1447 20-06-2015 00:30:00 10.8 C 95 % 10.03 C
1448 20-06-2015 00:35:00 10.8 C 95 % 10.03 C
1449 20-06-2015 00:40:00 10.8 C 95 % 10.03 C
1450 20-06-2015 00:45:00 10.8 C 95 % 10.03 C
Sensor: Nr:Datum:Temp:Feuchte:Taupunkt:
Aussen-T/F 1451 20-06-2015 00:50:00 10.8 C 95 % 10.03 C
1452 20-06-2015 00:55:00 10.9 C 95 % 10.13 C
1453 20-06-2015 01:00:00 10.9 C 95 % 10.13 C
1454 20-06-2015 01:05:00 10.9 C 95 % 10.13 C
1455 20-06-2015 01:10:00 10.9 C 95 % 10.13 C
1456 20-06-2015 01:15:00 10.9 C 95 % 10.13 C
1457 20-06-2015 01:20:00 10.9 C 95 % 10.13 C
1458 20-06-2015 01:25:00 10.9 C 95 % 10.13 C
1459 20-06-2015 01:30:00 10.9 C 95 % 10.13 C
1460 20-06-2015 01:35:00 10.9 C 96 % 10.29 C
1461 20-06-2015 01:40:00 10.9 C 95 % 10.13 C
1462 20-06-2015 01:45:00 10.9 C 96 % 10.29 C
1463 20-06-2015 01:50:00 10.9 C 96 % 10.29 C
1464 20-06-2015 01:55:00 10.9 C 96 % 10.29 C
1465 20-06-2015 02:00:00 10.8 C 96 % 10.19 C
1466 20-06-2015 02:05:00 10.8 C 96 % 10.19 C
1467 20-06-2015 02:10:00 10.8 C 96 % 10.19 C
1468 20-06-2015 02:15:00 10.8 C 96 % 10.19 C
1469 20-06-2015 02:20:00 10.8 C 96 % 10.19 C
1470 20-06-2015 02:25:00 10.8 C 96 % 10.19 C
1471 20-06-2015 02:30:00 10.8 C 96 % 10.19 C
1472 20-06-2015 02:35:00 10.9 C 96 % 10.29 C
1473 20-06-2015 02:40:00 10.9 C 96 % 10.29 C
1474 20-06-2015 02:45:00 10.8 C 96 % 10.19 C
1475 20-06-2015 02:50:00 10.8 C 96 % 10.19 C
Sensor: Nr:Datum:Temp:Feuchte:Taupunkt:
Aussen-T/F 1476 20-06-2015 02:55:00 10.8 C 96 % 10.19 C
1477 20-06-2015 03:00:00 10.9 C 96 % 10.29 C
1478 20-06-2015 03:05:00 10.9 C 96 % 10.29 C
1479 20-06-2015 03:10:00 10.9 C 96 % 10.29 C
1480 20-06-2015 03:15:00 10.8 C 96 % 10.19 C
1481 20-06-2015 03:20:00 10.8 C 96 % 10.19 C
1482 20-06-2015 03:25:00 10.8 C 95 % 10.03 C
1483 20-06-2015 03:30:00 10.8 C 95 % 10.03 C
1484 20-06-2015 03:35:00 10.7 C 96 % 10.09 C
1485 20-06-2015 03:40:00 10.8 C 96 % 10.19 C
1486 20-06-2015 03:45:00 10.8 C 96 % 10.19 C
1487 20-06-2015 03:50:00 10.8 C 96 % 10.19 C
1488 20-06-2015 03:55:00 10.7 C 95 % 9.93 C
1489 20-06-2015 04:00:00 10.5 C 95 % 9.73 C
1490 20-06-2015 04:05:00 10.5 C 95 % 9.73 C
1491 20-06-2015 04:10:00 10.4 C 95 % 9.63 C
1492 20-06-2015 04:15:00 10.4 C 95 % 9.63 C
1493 20-06-2015 04:20:00 10.4 C 95 % 9.63 C
1494 20-06-2015 04:25:00 10.3 C 95 % 9.54 C
1495 20-06-2015 04:30:00 10.3 C 95 % 9.54 C
1496 20-06-2015 04:35:00 10.3 C 95 % 9.54 C
1497 20-06-2015 04:40:00 10.3 C 95 % 9.54 C
1498 20-06-2015 04:45:00 10.3 C 95 % 9.54 C
1499 20-06-2015 04:50:00 10.3 C 95 % 9.54 C
1500 20-06-2015 04:55:00 10.3 C 95 % 9.54 C
Sensor: Nr:Datum:Temp:Feuchte:Taupunkt:
Aussen-T/F 1501 20-06-2015 05:00:00 10.3 C 95 % 9.54 C
1502 20-06-2015 05:05:00 10.3 C 95 % 9.54 C
1503 20-06-2015 05:10:00 10.3 C 95 % 9.54 C
1504 20-06-2015 05:15:00 10.3 C 95 % 9.54 C
1505 20-06-2015 05:55:00 10.4 C 96 % 9.79 C
1506 20-06-2015 06:00:00 10.4 C 96 % 9.79 C
1507 20-06-2015 06:05:00 10.4 C 96 % 9.79 C
1508 20-06-2015 06:10:00 10.4 C 96 % 9.79 C
1509 20-06-2015 06:15:00 10.4 C 96 % 9.79 C
1510 20-06-2015 06:20:00 10.4 C 96 % 9.79 C
1511 20-06-2015 06:25:00 10.3 C 95 % 9.54 C
1512 20-06-2015 06:30:00 10.3 C 95 % 9.54 C
1513 20-06-2015 06:35:00 10.3 C 95 % 9.54 C
1514 20-06-2015 06:40:00 10.3 C 95 % 9.54 C
1515 20-06-2015 06:45:00 10.3 C 95 % 9.54 C
1516 20-06-2015 06:50:00 10.3 C 95 % 9.54 C
1517 20-06-2015 06:55:00 10.4 C 95 % 9.63 C
1518 20-06-2015 07:00:00 10.4 C 94 % 9.48 C
1519 20-06-2015 07:05:00 10.5 C 94 % 9.58 C
1520 20-06-2015 07:10:00 10.6 C 94 % 9.68 C
1521 20-06-2015 07:15:00 10.7 C 93 % 9.62 C
1522 20-06-2015 07:20:00 10.8 C 93 % 9.71 C
1523 20-06-2015 07:25:00 10.8 C 92 % 9.55 C
1524 20-06-2015 07:30:00 10.8 C 92 % 9.55 C
1525 20-06-2015 07:35:00 10.8 C 92 % 9.55 C
Sensor: Nr:Datum:Temp:Feuchte:Taupunkt:
Aussen-T/F 1526 20-06-2015 07:40:00 10.8 C 92 % 9.55 C
1527 20-06-2015 07:45:00 10.8 C 91 % 9.39 C
1528 20-06-2015 07:50:00 10.9 C 91 % 9.49 C
1529 20-06-2015 07:55:00 10.9 C 91 % 9.49 C
1530 20-06-2015 08:00:00 11.1 C 91 % 9.69 C
1531 20-06-2015 08:05:00 11.2 C 91 % 9.79 C
1532 20-06-2015 08:10:00 11.2 C 90 % 9.62 C
1533 20-06-2015 08:15:00 11.3 C 90 % 9.72 C
1534 20-06-2015 08:20:00 11.4 C 89 % 9.65 C
1535 20-06-2015 08:25:00 11.5 C 89 % 9.75 C
1536 20-06-2015 08:30:00 11.6 C 89 % 9.85 C
1537 20-06-2015 08:35:00 11.7 C 89 % 9.95 C
1538 20-06-2015 08:40:00 11.8 C 88 % 9.88 C
1539 20-06-2015 08:45:00 11.8 C 88 % 9.88 C
1540 20-06-2015 08:50:00 11.8 C 87 % 9.71 C
1541 20-06-2015 08:55:00 11.8 C 87 % 9.71 C
1542 20-06-2015 09:00:00 11.9 C 87 % 9.81 C
1543 20-06-2015 09:05:00 11.9 C 87 % 9.81 C
1544 20-06-2015 09:10:00 11.9 C 88 % 9.98 C
1545 20-06-2015 09:15:00 11.9 C 88 % 9.98 C
1546 20-06-2015 09:20:00 12.2 C 88 % 10.27 C
1547 20-06-2015 09:25:00 12.2 C 86 % 9.93 C
1548 20-06-2015 09:30:00 12.2 C 86 % 9.93 C
1549 20-06-2015 09:35:00 12 C 86 % 9.73 C
1550 20-06-2015 09:40:00 12 C 87 % 9.91 C
Sensor: Nr:Datum:Temp:Feuchte:Taupunkt:
Aussen-T/F 1551 20-06-2015 09:45:00 12 C 87 % 9.91 C
1552 20-06-2015 09:50:00 12.1 C 87 % 10 C
1553 20-06-2015 09:55:00 12.1 C 87 % 10 C
1554 20-06-2015 10:00:00 12.2 C 88 % 10.27 C
1555 20-06-2015 10:05:00 12.4 C 87 % 10.3 C
1556 20-06-2015 10:10:00 12.6 C 87 % 10.5 C
1557 20-06-2015 10:15:00 12.7 C 87 % 10.59 C
1558 20-06-2015 10:20:00 13.1 C 83 % 10.28 C
1559 20-06-2015 10:25:00 13.1 C 82 % 10.1 C
1560 20-06-2015 10:30:00 13 C 82 % 10 C
1561 20-06-2015 10:35:00 13 C 82 % 10 C
1562 20-06-2015 10:40:00 12.8 C 82 % 9.81 C
1563 20-06-2015 10:45:00 12.7 C 83 % 9.89 C
1564 20-06-2015 10:50:00 12.6 C 84 % 9.97 C
1565 20-06-2015 10:55:00 12.6 C 84 % 9.97 C
1566 20-06-2015 11:00:00 12.3 C 84 % 9.68 C
1567 20-06-2015 11:05:00 12.2 C 84 % 9.58 C
1568 20-06-2015 11:10:00 12.2 C 84 % 9.58 C
1569 20-06-2015 11:30:00 13.3 C 81 % 10.11 C
1570 20-06-2015 11:35:00 13.4 C 79 % 9.84 C
1571 20-06-2015 11:40:00 13.4 C 79 % 9.84 C
1572 20-06-2015 11:45:00 13.4 C 79 % 9.84 C
1573 20-06-2015 11:50:00 13.6 C 79 % 10.03 C
1574 20-06-2015 11:55:00 13.6 C 79 % 10.03 C
1575 20-06-2015 12:00:00 13.6 C 78 % 9.84 C
Sensor: Nr:Datum:Temp:Feuchte:Taupunkt:
Aussen-T/F 1576 20-06-2015 12:05:00 13.7 C 81 % 10.5 C
1577 20-06-2015 12:10:00 13.8 C 79 % 10.22 C
1578 20-06-2015 12:15:00 14 C 77 % 10.04 C
1579 20-06-2015 12:20:00 14.1 C 78 % 10.33 C
1580 20-06-2015 12:25:00 14.4 C 79 % 10.81 C
1581 20-06-2015 12:30:00 15.1 C 77 % 11.1 C
1582 20-06-2015 12:35:00 15.6 C 71 % 10.37 C
1583 20-06-2015 12:40:00 16 C 72 % 10.96 C
1584 20-06-2015 12:45:00 16.3 C 71 % 11.04 C
1585 20-06-2015 12:50:00 16.4 C 72 % 11.34 C
1586 20-06-2015 12:55:00 16.5 C 68 % 10.58 C
1587 20-06-2015 13:00:00 16.1 C 67 % 9.98 C
1588 20-06-2015 13:05:00 15.6 C 70 % 10.15 C
1589 20-06-2015 13:10:00 15.3 C 73 % 10.49 C
1590 20-06-2015 13:15:00 15.1 C 71 % 9.89 C
1591 20-06-2015 13:20:00 14.9 C 74 % 10.31 C
1592 20-06-2015 13:25:00 14.8 C 73 % 10.01 C
1593 20-06-2015 13:30:00 14.8 C 72 % 9.81 C
1594 20-06-2015 13:35:00 14.7 C 71 % 9.5 C
1595 20-06-2015 13:40:00 14.6 C 70 % 9.2 C
1596 20-06-2015 13:45:00 14.7 C 72 % 9.71 C
1597 20-06-2015 13:50:00 14.8 C 72 % 9.81 C
1598 20-06-2015 13:55:00 15.1 C 70 % 9.67 C
1599 20-06-2015 14:00:00 15.4 C 69 % 9.75 C
1600 20-06-2015 14:05:00 15.7 C 70 % 10.25 C
Sensor: Nr:Datum:Temp:Feuchte:Taupunkt:
Aussen-T/F 1601 20-06-2015 14:10:00 15.7 C 60 % 7.97 C
1602 20-06-2015 14:15:00 15.7 C 63 % 8.68 C
1603 20-06-2015 14:20:00 16 C 63 % 8.97 C
1604 20-06-2015 14:25:00 16.1 C 66 % 9.75 C
1605 20-06-2015 14:30:00 16.3 C 63 % 9.25 C
1606 20-06-2015 14:35:00 16.3 C 63 % 9.25 C
1607 20-06-2015 14:40:00 16.2 C 65 % 9.62 C
1608 20-06-2015 14:45:00 16.3 C 63 % 9.25 C
1609 20-06-2015 14:50:00 16.1 C 66 % 9.75 C
1610 20-06-2015 14:55:00 16.1 C 67 % 9.98 C
1611 20-06-2015 15:00:00 15.9 C 66 % 9.56 C
1612 20-06-2015 15:05:00 15.9 C 65 % 9.34 C
1613 20-06-2015 15:10:00 15.8 C 65 % 9.24 C
1614 20-06-2015 15:15:00 15.9 C 67 % 9.79 C
1615 20-06-2015 15:20:00 16.2 C 68 % 10.29 C
1616 20-06-2015 15:25:00 16.8 C 65 % 10.19 C
1617 20-06-2015 15:30:00 17.3 C 59 % 9.22 C
1618 20-06-2015 15:35:00 17.7 C 59 % 9.59 C
1619 20-06-2015 15:40:00 17.7 C 59 % 9.59 C
1620 20-06-2015 15:45:00 17.4 C 57 % 8.8 C
1621 20-06-2015 15:50:00 17.4 C 61 % 9.81 C
1622 20-06-2015 15:55:00 17.6 C 58 % 9.25 C
1623 20-06-2015 16:00:00 17.5 C 61 % 9.9 C
1624 20-06-2015 16:05:00 17.4 C 61 % 9.81 C
1625 20-06-2015 16:10:00 17.2 C 61 % 9.62 C
Sensor: Nr:Datum:Temp:Feuchte:Taupunkt:
Aussen-T/F 1626 20-06-2015 16:15:00 16.9 C 60 % 9.09 C
1627 20-06-2015 16:20:00 16.6 C 60 % 8.81 C
1628 20-06-2015 16:25:00 16.5 C 62 % 9.2 C
1629 20-06-2015 16:30:00 16.7 C 62 % 9.39 C
1630 20-06-2015 16:35:00 16.8 C 61 % 9.24 C
1631 20-06-2015 16:40:00 16.7 C 59 % 8.66 C
1632 20-06-2015 16:45:00 16.4 C 64 % 9.58 C
1633 20-06-2015 16:50:00 16.5 C 62 % 9.2 C
1634 20-06-2015 16:55:00 16.7 C 63 % 9.63 C
1635 20-06-2015 17:00:00 16.9 C 65 % 10.28 C
1636 20-06-2015 17:05:00 17.1 C 61 % 9.53 C
1637 20-06-2015 17:10:00 17 C 60 % 9.19 C
1638 20-06-2015 17:15:00 16.9 C 61 % 9.34 C
1639 20-06-2015 17:20:00 16.8 C 63 % 9.72 C
1640 20-06-2015 17:25:00 16.7 C 63 % 9.63 C
1641 20-06-2015 17:30:00 16.4 C 61 % 8.87 C
1642 20-06-2015 17:35:00 16.2 C 61 % 8.68 C
1643 20-06-2015 17:40:00 16 C 61 % 8.49 C
1644 20-06-2015 17:45:00 15.9 C 62 % 8.64 C
1645 20-06-2015 17:50:00 15.9 C 63 % 8.87 C
1646 20-06-2015 17:55:00 15.9 C 63 % 8.87 C
1647 20-06-2015 18:00:00 15.9 C 62 % 8.64 C
1648 20-06-2015 18:05:00 15.9 C 63 % 8.87 C
1649 20-06-2015 18:10:00 15.8 C 63 % 8.78 C
1650 20-06-2015 18:15:00 15.9 C 63 % 8.87 C
Sensor: Nr:Datum:Temp:Feuchte:Taupunkt:
Aussen-T/F 1651 20-06-2015 18:20:00 16 C 63 % 8.97 C
1652 20-06-2015 18:25:00 16.1 C 65 % 9.53 C
1653 20-06-2015 18:30:00 16.1 C 64 % 9.29 C
1654 20-06-2015 18:35:00 16.1 C 64 % 9.29 C
1655 20-06-2015 18:40:00 16.1 C 61 % 8.58 C
1656 20-06-2015 18:45:00 15.8 C 63 % 8.78 C
1657 20-06-2015 18:50:00 15.7 C 62 % 8.45 C
1658 20-06-2015 18:55:00 15.6 C 63 % 8.59 C
1659 20-06-2015 19:00:00 15.5 C 63 % 8.49 C
1660 20-06-2015 19:05:00 15.4 C 63 % 8.4 C
1661 20-06-2015 19:10:00 15.4 C 63 % 8.4 C
1662 20-06-2015 20:40:00 13.8 C 82 % 10.78 C
1663 20-06-2015 20:45:00 13.7 C 83 % 10.87 C
1664 20-06-2015 20:50:00 13.6 C 83 % 10.77 C
1665 20-06-2015 20:55:00 13.5 C 83 % 10.67 C
1666 20-06-2015 21:00:00 13.4 C 84 % 10.75 C
1667 20-06-2015 21:05:00 13.4 C 84 % 10.75 C
1668 20-06-2015 21:10:00 13.3 C 84 % 10.66 C
1669 20-06-2015 21:15:00 13.3 C 84 % 10.66 C
1670 20-06-2015 21:20:00 13.2 C 84 % 10.56 C
1671 20-06-2015 21:25:00 13.2 C 84 % 10.56 C
1672 20-06-2015 21:30:00 13.1 C 83 % 10.28 C
1673 20-06-2015 21:35:00 13.1 C 85 % 10.64 C
1674 20-06-2015 21:40:00 13 C 85 % 10.54 C
1675 20-06-2015 21:45:00 13 C 85 % 10.54 C
Sensor: Nr:Datum:Temp:Feuchte:Taupunkt:
Aussen-T/F 1676 20-06-2015 21:50:00 12.9 C 86 % 10.62 C
1677 20-06-2015 21:55:00 12.9 C 85 % 10.44 C
1678 20-06-2015 22:00:00 12.8 C 86 % 10.52 C
1679 20-06-2015 22:05:00 12.8 C 86 % 10.52 C
1680 20-06-2015 22:10:00 12.7 C 86 % 10.42 C
1681 20-06-2015 22:15:00 12.7 C 86 % 10.42 C
1682 20-06-2015 22:20:00 12.7 C 86 % 10.42 C
1683 20-06-2015 22:25:00 12.6 C 86 % 10.32 C
1684 20-06-2015 22:30:00 12.6 C 86 % 10.32 C
1685 20-06-2015 22:35:00 12.6 C 87 % 10.5 C
1686 20-06-2015 22:40:00 12.5 C 87 % 10.4 C
1687 20-06-2015 22:45:00 12.5 C 86 % 10.22 C
1688 20-06-2015 22:50:00 12.4 C 86 % 10.13 C
1689 20-06-2015 22:55:00 12.4 C 86 % 10.13 C
1690 20-06-2015 23:00:00 12.4 C 86 % 10.13 C
1691 20-06-2015 23:05:00 12.4 C 86 % 10.13 C
1692 20-06-2015 23:10:00 12.4 C 86 % 10.13 C
1693 20-06-2015 23:15:00 12.3 C 85 % 9.85 C
1694 20-06-2015 23:20:00 12.3 C 85 % 9.85 C
1695 20-06-2015 23:25:00 12.3 C 85 % 9.85 C
1696 20-06-2015 23:30:00 12.3 C 85 % 9.85 C
1697 21-06-2015 00:40:00 11.9 C 87 % 9.81 C
1698 21-06-2015 00:45:00 11.9 C 87 % 9.81 C
1699 21-06-2015 00:50:00 11.9 C 87 % 9.81 C
1700 21-06-2015 00:55:00 11.9 C 86 % 9.64 C
Sensor: Nr:Datum:Temp:Feuchte:Taupunkt:
Aussen-T/F 1701 21-06-2015 01:00:00 11.9 C 87 % 9.81 C
1702 21-06-2015 01:05:00 11.9 C 87 % 9.81 C
1703 21-06-2015 01:10:00 11.9 C 88 % 9.98 C
1704 21-06-2015 01:15:00 11.8 C 88 % 9.88 C
1705 21-06-2015 01:20:00 11.8 C 88 % 9.88 C
1706 21-06-2015 01:25:00 11.8 C 89 % 10.05 C
1707 21-06-2015 01:30:00 11.8 C 89 % 10.05 C
1708 21-06-2015 01:35:00 11.7 C 89 % 9.95 C
1709 21-06-2015 01:40:00 11.7 C 89 % 9.95 C
1710 21-06-2015 01:45:00 11.7 C 90 % 10.12 C
1711 21-06-2015 01:50:00 11.6 C 90 % 10.02 C
1712 21-06-2015 01:55:00 11.6 C 90 % 10.02 C
1713 21-06-2015 02:00:00 11.6 C 91 % 10.18 C
1714 21-06-2015 02:05:00 11.6 C 91 % 10.18 C
1715 21-06-2015 02:10:00 11.5 C 91 % 10.08 C
1716 21-06-2015 02:15:00 11.4 C 91 % 9.98 C
1717 21-06-2015 02:20:00 11.4 C 91 % 9.98 C
1718 21-06-2015 02:25:00 11.4 C 92 % 10.15 C
1719 21-06-2015 02:30:00 11.4 C 92 % 10.15 C
1720 21-06-2015 02:35:00 11.3 C 92 % 10.05 C
1721 21-06-2015 02:40:00 11.3 C 92 % 10.05 C
1722 21-06-2015 02:45:00 11.3 C 92 % 10.05 C
1723 21-06-2015 02:50:00 11.3 C 93 % 10.21 C
1724 21-06-2015 02:55:00 11.3 C 93 % 10.21 C
1725 21-06-2015 03:00:00 11.3 C 92 % 10.05 C
Sensor: Nr:Datum:Temp:Feuchte:Taupunkt:
Aussen-T/F 1726 21-06-2015 03:05:00 11.3 C 93 % 10.21 C
1727 21-06-2015 03:10:00 11.3 C 93 % 10.21 C
1728 21-06-2015 03:15:00 11.3 C 93 % 10.21 C
1729 21-06-2015 03:20:00 11.3 C 93 % 10.21 C
1730 21-06-2015 03:25:00 11.3 C 93 % 10.21 C
1731 21-06-2015 03:30:00 11.3 C 93 % 10.21 C
1732 21-06-2015 03:35:00 11.3 C 93 % 10.21 C
1733 21-06-2015 03:40:00 11.3 C 93 % 10.21 C
1734 21-06-2015 03:45:00 11.3 C 93 % 10.21 C
1735 21-06-2015 03:50:00 11.3 C 94 % 10.37 C
1736 21-06-2015 03:55:00 11.3 C 94 % 10.37 C
1737 21-06-2015 04:00:00 11.3 C 94 % 10.37 C
1738 21-06-2015 04:05:00 11.3 C 93 % 10.21 C
1739 21-06-2015 04:10:00 11.3 C 93 % 10.21 C
1740 21-06-2015 04:15:00 11.3 C 93 % 10.21 C
1741 21-06-2015 04:20:00 11.4 C 93 % 10.31 C
1742 21-06-2015 04:25:00 11.4 C 93 % 10.31 C
1743 21-06-2015 04:30:00 11.4 C 93 % 10.31 C
1744 21-06-2015 04:35:00 11.4 C 93 % 10.31 C
1745 21-06-2015 04:40:00 11.4 C 93 % 10.31 C
1746 21-06-2015 04:45:00 11.4 C 93 % 10.31 C
1747 21-06-2015 04:50:00 11.4 C 93 % 10.31 C
1748 21-06-2015 04:55:00 11.4 C 93 % 10.31 C
1749 21-06-2015 05:00:00 11.4 C 93 % 10.31 C
1750 21-06-2015 05:05:00 11.4 C 93 % 10.31 C
Sensor: Nr:Datum:Temp:Feuchte:Taupunkt:
Aussen-T/F 1751 21-06-2015 05:10:00 11.4 C 94 % 10.47 C
1752 21-06-2015 05:15:00 11.4 C 93 % 10.31 C
1753 21-06-2015 05:20:00 11.4 C 94 % 10.47 C
1754 21-06-2015 05:25:00 11.4 C 94 % 10.47 C
1755 21-06-2015 05:30:00 11.3 C 94 % 10.37 C
1756 21-06-2015 05:35:00 11.3 C 94 % 10.37 C
1757 21-06-2015 05:40:00 11.3 C 94 % 10.37 C
1758 21-06-2015 05:45:00 11.3 C 94 % 10.37 C
1759 21-06-2015 05:50:00 11.3 C 94 % 10.37 C
1760 21-06-2015 05:55:00 11.3 C 94 % 10.37 C
1761 21-06-2015 06:00:00 11.4 C 94 % 10.47 C
1762 21-06-2015 06:05:00 11.4 C 94 % 10.47 C
1763 21-06-2015 06:10:00 11.5 C 93 % 10.41 C
1764 21-06-2015 06:15:00 11.5 C 93 % 10.41 C
1765 21-06-2015 06:20:00 11.6 C 93 % 10.51 C
1766 21-06-2015 06:25:00 11.6 C 93 % 10.51 C
1767 21-06-2015 06:30:00 11.7 C 93 % 10.61 C
1768 21-06-2015 06:35:00 11.8 C 92 % 10.54 C
1769 21-06-2015 06:40:00 11.9 C 92 % 10.64 C
1770 21-06-2015 06:45:00 12 C 92 % 10.74 C
1771 21-06-2015 06:50:00 12.1 C 92 % 10.84 C
1772 21-06-2015 06:55:00 12.1 C 92 % 10.84 C
1773 21-06-2015 07:00:00 12.1 C 92 % 10.84 C
1774 21-06-2015 07:05:00 12 C 92 % 10.74 C
1775 21-06-2015 07:10:00 12.1 C 92 % 10.84 C
Sensor: Nr:Datum:Temp:Feuchte:Taupunkt:
Aussen-T/F 1776 21-06-2015 07:15:00 12.1 C 92 % 10.84 C
1777 21-06-2015 07:20:00 12.1 C 92 % 10.84 C
1778 21-06-2015 07:25:00 12.2 C 93 % 11.1 C
1779 21-06-2015 07:30:00 12.1 C 93 % 11 C
1780 21-06-2015 07:35:00 12.2 C 93 % 11.1 C
1781 21-06-2015 07:40:00 12.2 C 93 % 11.1 C
1782 21-06-2015 07:45:00 12.3 C 93 % 11.2 C
1783 21-06-2015 07:50:00 12.4 C 93 % 11.3 C
1784 21-06-2015 07:55:00 12.4 C 93 % 11.3 C
1785 21-06-2015 08:00:00 12.5 C 93 % 11.4 C
1786 21-06-2015 08:05:00 12.6 C 93 % 11.5 C
1787 21-06-2015 08:10:00 12.6 C 93 % 11.5 C
1788 21-06-2015 08:15:00 12.6 C 93 % 11.5 C
1789 21-06-2015 08:20:00 12.7 C 93 % 11.6 C
1790 21-06-2015 08:25:00 12.7 C 93 % 11.6 C
1791 21-06-2015 08:30:00 12.7 C 93 % 11.6 C
1792 21-06-2015 08:35:00 12.8 C 93 % 11.7 C
1793 21-06-2015 08:40:00 12.8 C 93 % 11.7 C
1794 21-06-2015 08:45:00 12.8 C 93 % 11.7 C
1795 21-06-2015 08:50:00 12.8 C 93 % 11.7 C
1796 21-06-2015 08:55:00 12.8 C 92 % 11.53 C
1797 21-06-2015 09:00:00 12.9 C 92 % 11.63 C
1798 21-06-2015 09:05:00 13 C 92 % 11.73 C
1799 21-06-2015 09:10:00 13.1 C 91 % 11.67 C
1800 21-06-2015 09:15:00 13.2 C 91 % 11.76 C
Sensor: Nr:Datum:Temp:Feuchte:Taupunkt:
Aussen-T/F 1801 21-06-2015 09:20:00 13.3 C 91 % 11.86 C
1802 21-06-2015 09:25:00 13.4 C 90 % 11.79 C
1803 21-06-2015 09:30:00 13.6 C 90 % 11.99 C
1804 21-06-2015 09:35:00 13.7 C 89 % 11.92 C
1805 21-06-2015 09:40:00 13.8 C 89 % 12.02 C
1806 21-06-2015 09:45:00 14 C 89 % 12.22 C
1807 21-06-2015 09:50:00 14.3 C 88 % 12.34 C
1808 21-06-2015 09:55:00 14.6 C 88 % 12.64 C
1809 21-06-2015 10:00:00 14.9 C 88 % 12.93 C
1810 21-06-2015 10:05:00 15.2 C 85 % 12.7 C
1811 21-06-2015 10:10:00 15.4 C 85 % 12.89 C
1812 21-06-2015 10:15:00 15.6 C 85 % 13.09 C
1813 21-06-2015 10:20:00 15.7 C 84 % 13.01 C
1814 21-06-2015 10:25:00 15.8 C 83 % 12.92 C
1815 21-06-2015 10:30:00 15.9 C 83 % 13.02 C
1816 21-06-2015 10:35:00 16.3 C 84 % 13.59 C
1817 21-06-2015 10:40:00 16.6 C 81 % 13.33 C
1818 21-06-2015 10:45:00 16.6 C 80 % 13.14 C
1819 21-06-2015 10:50:00 16.6 C 80 % 13.14 C
1820 21-06-2015 10:55:00 16.6 C 80 % 13.14 C
1821 21-06-2015 11:00:00 16.6 C 81 % 13.33 C
1822 21-06-2015 11:05:00 16.8 C 80 % 13.33 C
1823 21-06-2015 11:10:00 17.1 C 81 % 13.82 C
1824 21-06-2015 11:15:00 17.1 C 79 % 13.43 C
1825 21-06-2015 11:20:00 17.9 C 77 % 13.81 C
Sensor: Nr:Datum:Temp:Feuchte:Taupunkt:
Aussen-T/F 1826 21-06-2015 11:25:00 17.9 C 75 % 13.41 C
1827 21-06-2015 11:30:00 17.8 C 76 % 13.52 C
1828 21-06-2015 11:35:00 17.9 C 76 % 13.61 C
1829 21-06-2015 11:40:00 17.9 C 76 % 13.61 C
1830 21-06-2015 11:45:00 18.3 C 76 % 14 C
1831 21-06-2015 11:50:00 18.6 C 75 % 14.08 C
1832 21-06-2015 11:55:00 18.6 C 72 % 13.46 C
1833 21-06-2015 12:00:00 18.6 C 74 % 13.88 C
1834 21-06-2015 12:05:00 18.7 C 74 % 13.97 C
1835 21-06-2015 12:10:00 18.9 C 75 % 14.37 C
1836 21-06-2015 12:15:00 18.8 C 73 % 13.86 C
1837 21-06-2015 12:20:00 18.7 C 73 % 13.76 C
1838 21-06-2015 12:25:00 18.5 C 73 % 13.57 C
1839 21-06-2015 12:30:00 18.5 C 74 % 13.78 C
1840 21-06-2015 12:35:00 18.4 C 74 % 13.68 C
1841 21-06-2015 12:40:00 18.3 C 75 % 13.79 C
1842 21-06-2015 12:45:00 18.4 C 75 % 13.89 C
1843 21-06-2015 12:50:00 18.4 C 75 % 13.89 C
1844 21-06-2015 12:55:00 18.6 C 75 % 14.08 C
1845 21-06-2015 13:00:00 18.7 C 75 % 14.18 C
1846 21-06-2015 13:05:00 18.9 C 74 % 14.17 C
1847 21-06-2015 13:10:00 19 C 74 % 14.26 C
1848 21-06-2015 13:15:00 19.1 C 73 % 14.15 C
1849 21-06-2015 13:20:00 19.1 C 73 % 14.15 C
1850 21-06-2015 13:25:00 18.9 C 73 % 13.96 C
Sensor: Nr:Datum:Temp:Feuchte:Taupunkt:
Aussen-T/F 1851 21-06-2015 13:30:00 18.7 C 73 % 13.76 C
1852 21-06-2015 13:35:00 18.6 C 74 % 13.88 C
1853 21-06-2015 13:40:00 18.7 C 75 % 14.18 C
1854 21-06-2015 13:45:00 18.7 C 74 % 13.97 C
1855 21-06-2015 13:50:00 18.7 C 74 % 13.97 C
1856 21-06-2015 13:55:00 18.6 C 75 % 14.08 C
1857 21-06-2015 14:00:00 18.6 C 75 % 14.08 C
1858 21-06-2015 14:05:00 18.7 C 75 % 14.18 C
1859 21-06-2015 14:10:00 19 C 75 % 14.47 C
1860 21-06-2015 14:15:00 19.3 C 73 % 14.34 C
1861 21-06-2015 14:20:00 19.3 C 73 % 14.34 C
1862 21-06-2015 14:25:00 19.4 C 74 % 14.65 C
1863 21-06-2015 14:30:00 19.6 C 73 % 14.63 C
1864 21-06-2015 14:35:00 19.4 C 73 % 14.44 C
1865 21-06-2015 14:40:00 19.3 C 74 % 14.55 C
1866 21-06-2015 14:45:00 19.2 C 75 % 14.66 C
1867 21-06-2015 14:50:00 19.2 C 75 % 14.66 C
1868 21-06-2015 14:55:00 19.1 C 76 % 14.77 C
1869 21-06-2015 15:00:00 18.9 C 76 % 14.58 C
1870 21-06-2015 15:05:00 18.8 C 77 % 14.68 C
1871 21-06-2015 15:10:00 18.6 C 78 % 14.69 C
1872 21-06-2015 15:15:00 18.4 C 79 % 14.69 C
1873 21-06-2015 15:20:00 18.3 C 82 % 15.17 C
1874 21-06-2015 15:25:00 18 C 84 % 15.26 C
1875 21-06-2015 15:30:00 17.8 C 86 % 15.43 C
Sensor: Nr:Datum:Temp:Feuchte:Taupunkt:
Aussen-T/F 1876 21-06-2015 15:35:00 17.6 C 88 % 15.59 C
1877 21-06-2015 15:40:00 17.4 C 88 % 15.39 C
1878 21-06-2015 15:45:00 17.4 C 89 % 15.57 C
1879 21-06-2015 15:50:00 17.4 C 89 % 15.57 C
1880 21-06-2015 15:55:00 17.4 C 89 % 15.57 C
1881 21-06-2015 16:00:00 17.6 C 89 % 15.77 C
1882 21-06-2015 16:05:00 17.9 C 90 % 16.24 C
1883 21-06-2015 16:10:00 18.3 C 90 % 16.63 C
1884 21-06-2015 16:15:00 18.4 C 86 % 16.02 C
1885 21-06-2015 16:20:00 18.6 C 87 % 16.39 C
1886 21-06-2015 16:25:00 18.9 C 84 % 16.14 C
1887 21-06-2015 16:30:00 19.2 C 84 % 16.43 C
1888 21-06-2015 16:35:00 19.3 C 83 % 16.34 C
1889 21-06-2015 16:40:00 19.8 C 81 % 16.45 C
1890 21-06-2015 16:45:00 20.3 C 81 % 16.93 C
1891 21-06-2015 16:50:00 20.3 C 79 % 16.54 C
1892 21-06-2015 16:55:00 20.3 C 80 % 16.74 C
1893 21-06-2015 17:00:00 20.1 C 80 % 16.54 C
1894 21-06-2015 17:05:00 19.8 C 80 % 16.25 C
1895 21-06-2015 17:10:00 19.7 C 81 % 16.35 C
1896 21-06-2015 17:15:00 19.6 C 80 % 16.06 C
1897 21-06-2015 17:20:00 19.6 C 82 % 16.44 C
1898 21-06-2015 17:25:00 19.6 C 81 % 16.25 C
1899 21-06-2015 17:30:00 19.4 C 82 % 16.25 C
1900 21-06-2015 17:35:00 19.3 C 82 % 16.15 C
Sensor: Nr:Datum:Temp:Feuchte:Taupunkt:
Aussen-T/F 1901 21-06-2015 17:40:00 19.2 C 83 % 16.24 C
1902 21-06-2015 17:45:00 19.5 C 84 % 16.72 C
1903 21-06-2015 17:50:00 19.8 C 83 % 16.83 C
1904 21-06-2015 17:55:00 19.9 C 82 % 16.74 C
1905 21-06-2015 18:00:00 19.9 C 82 % 16.74 C
1906 21-06-2015 18:05:00 19.8 C 81 % 16.45 C
1907 21-06-2015 18:10:00 19.7 C 79 % 15.96 C
1908 21-06-2015 18:15:00 19.6 C 81 % 16.25 C
1909 21-06-2015 18:20:00 19.6 C 81 % 16.25 C
1910 21-06-2015 18:25:00 19.8 C 79 % 16.05 C
1911 21-06-2015 18:30:00 20.2 C 78 % 16.24 C
1912 21-06-2015 18:35:00 20.4 C 79 % 16.64 C
1913 21-06-2015 18:40:00 20.4 C 75 % 15.82 C
1914 21-06-2015 18:45:00 20.5 C 71 % 15.06 C
1915 21-06-2015 18:50:00 20.6 C 70 % 14.94 C
1916 21-06-2015 18:55:00 20.5 C 70 % 14.84 C
1917 21-06-2015 19:00:00 20.4 C 69 % 14.52 C
1918 21-06-2015 19:05:00 20.4 C 69 % 14.52 C
1919 21-06-2015 20:10:00 18.2 C 86 % 15.82 C
1920 21-06-2015 20:15:00 18.2 C 87 % 16 C
1921 21-06-2015 20:20:00 18.2 C 86 % 15.82 C
1922 21-06-2015 20:25:00 18.2 C 86 % 15.82 C
1923 21-06-2015 20:30:00 18.2 C 87 % 16 C
1924 21-06-2015 20:35:00 18.2 C 86 % 15.82 C
1925 21-06-2015 20:40:00 18.2 C 86 % 15.82 C
Sensor: Nr:Datum:Temp:Feuchte:Taupunkt:
Aussen-T/F 1926 21-06-2015 20:45:00 18.1 C 86 % 15.72 C
1927 21-06-2015 20:50:00 18 C 87 % 15.8 C
1928 21-06-2015 20:55:00 18 C 84 % 15.26 C
1929 21-06-2015 21:00:00 18 C 83 % 15.07 C
1930 21-06-2015 21:05:00 18 C 85 % 15.44 C
1931 21-06-2015 21:10:00 17.9 C 83 % 14.97 C
1932 21-06-2015 21:15:00 17.8 C 85 % 15.25 C
1933 21-06-2015 21:20:00 17.5 C 85 % 14.95 C
1934 21-06-2015 21:25:00 17.3 C 83 % 14.39 C
1935 21-06-2015 21:30:00 17.3 C 81 % 14.01 C
1936 21-06-2015 21:35:00 17.4 C 75 % 12.93 C
1937 21-06-2015 21:40:00 17.5 C 79 % 13.82 C
1938 21-06-2015 21:45:00 17.3 C 78 % 13.43 C
1939 21-06-2015 21:50:00 16.9 C 78 % 13.04 C
1940 21-06-2015 21:55:00 16.8 C 77 % 12.75 C
1941 21-06-2015 22:00:00 16.8 C 77 % 12.75 C
1942 21-06-2015 22:05:00 16.7 C 79 % 13.04 C
1943 21-06-2015 22:10:00 16.6 C 78 % 12.75 C
1944 21-06-2015 22:15:00 16.5 C 76 % 12.26 C
1945 21-06-2015 22:20:00 16.4 C 75 % 11.96 C
1946 21-06-2015 22:25:00 16.4 C 75 % 11.96 C
1947 21-06-2015 22:30:00 16.3 C 77 % 12.26 C
1948 21-06-2015 22:35:00 16 C 80 % 12.55 C
1949 21-06-2015 22:40:00 15.7 C 82 % 12.64 C
1950 21-06-2015 22:45:00 15.3 C 82 % 12.25 C
Sensor: Nr:Datum:Temp:Feuchte:Taupunkt:
Aussen-T/F 1951 21-06-2015 22:50:00 15.1 C 82 % 12.05 C
1952 21-06-2015 22:55:00 15.1 C 83 % 12.24 C
1953 21-06-2015 23:00:00 14.8 C 83 % 11.94 C
1954 21-06-2015 23:05:00 14.7 C 84 % 12.03 C
1955 21-06-2015 23:10:00 14.4 C 85 % 11.91 C
1956 21-06-2015 23:15:00 14.3 C 85 % 11.81 C
1957 21-06-2015 23:20:00 14.2 C 86 % 11.89 C
1958 21-06-2015 23:25:00 14.1 C 86 % 11.8 C
1959 21-06-2015 23:30:00 14.1 C 86 % 11.8 C
1960 21-06-2015 23:35:00 14.2 C 85 % 11.72 C
1961 21-06-2015 23:40:00 14.3 C 84 % 11.64 C
1962 21-06-2015 23:45:00 14.2 C 84 % 11.54 C
1963 21-06-2015 23:50:00 14.2 C 82 % 11.17 C
1964 21-06-2015 23:55:00 14.3 C 84 % 11.64 C

Legende:
   Min
   Max


Maximal/Minimal-Werte vom 15.06.2015 - 21.06.2015

Sensor Min Max Avg
Temp
(Aussen-T/F)
7.4 °C
17-06-2015  05:30:00
24.5 °C
17-06-2015  17:55:00
15.36 °C
Feuchte
(Aussen-T/F)
37 %
17-06-2015  17:50:00
96 %
20-06-2015  01:35:00
75.22 %
Taupunkt
(Aussen-T/F)
4.63 C
16-06-2015  21:20:00
16.93 C
21-06-2015  16:45:00
10.62 C

Die Daten stammen von einer Davis Vantage Pro 2 Wetter-Station und werden unter Linux mit der Software wview2wettercgi und aufbereitet. Alle Angaben erfolgen ohne Gewähr für ihre Vollständigkeit oder Richtigkeit.
Kontakt: Rainer Krienke krienke@uni-koblenz.de . Meine Webseiten an der Uni Koblenz oder privat.
Version: $Revision: 0.78 $